Observation data for Happy on 05/25/2020      Previous  Date  Next       Current Mesonet Observations  Soil Data  Daily Summary Page  Observations in Plain Language
KHA2 250500Z 09013KT 17/10 A2978 RMK A01 T01710097  RH  062%=      5-min Rain = 0
KHA2 250501Z 08014KT 17/10 A2977 RMK A01 T01710098  RH  062%=      5-min Rain = 0
KHA2 250502Z 08013KT 17/10 A2977 RMK A01 T01710098  RH  062%=      5-min Rain = 0
KHA2 250503Z 08014KT 17/10 A2977 RMK A01 T01700098  RH  063%=      5-min Rain = 0
KHA2 250504Z 08014KT 17/10 A2977 RMK A01 T01700098  RH  063%=      5-min Rain = 0
KHA2 250505Z 09013KT 17/10 A2978 RMK A01 T01700099  RH  063%=      5-min Rain = 0
KHA2 250506Z 09011KT 17/10 A2978 RMK A01 T01690098  RH  063%=      5-min Rain = 0
KHA2 250507Z 10010KT 17/10 A2978 RMK A01 T01680098  RH  063%=      5-min Rain = 0
KHA2 250508Z 10010KT 17/10 A2978 RMK A01 T01680098  RH  063%=      5-min Rain = 0
KHA2 250509Z 10011KT 17/10 A2978 RMK A01 T01680098  RH  064%=      5-min Rain = 0
KHA2 250510Z 09010KT 17/10 A2978 RMK A01 T01680098  RH  063%=      5-min Rain = 0
KHA2 250511Z 09011KT 17/10 A2978 RMK A01 T01680098  RH  064%=      5-min Rain = 0
KHA2 250512Z 10011KT 17/10 A2978 RMK A01 T01670099  RH  064%=      5-min Rain = 0
KHA2 250513Z 10011KT 17/10 A2979 RMK A01 T01680099  RH  064%=      5-min Rain = 0
KHA2 250514Z 09013KT 17/10 A2979 RMK A01 T01670099  RH  064%=      5-min Rain = 0
KHA2 250515Z 09013KT 17/10 A2978 RMK A01 T01660099  RH  064%=      5-min Rain = 0
KHA2 250516Z 09011KT 17/10 A2978 RMK A01 T01670100  RH  065%=      5-min Rain = 0
KHA2 250517Z 09011KT 17/10 A2978 RMK A01 T01670100  RH  065%=      5-min Rain = 0
KHA2 250518Z 10011KT 17/10 A2979 RMK A01 T01670101  RH  065%=      5-min Rain = 0
KHA2 250519Z 11011KT 17/10 A2979 RMK A01 T01670100  RH  064%=      5-min Rain = 0
KHA2 250520Z 12012KT 17/10 A2979 RMK A01 T01670098  RH  063%=      5-min Rain = 0
KHA2 250521Z 12012KT 17/10 A298 RMK A01 T01670097  RH  063%=      5-min Rain = 0
KHA2 250522Z 12011KT 17/10 A298 RMK A01 T01670098  RH  064%=      5-min Rain = 0
KHA2 250523Z 13010KT 17/10 A298 RMK A01 T01660097  RH  064%=      5-min Rain = 0
KHA2 250524Z 13009KT 17/10 A298 RMK A01 T01650097  RH  064%=      5-min Rain = 0
KHA2 250525Z 14008KT 16/10 A298 RMK A01 T01640097  RH  064%=      5-min Rain = 0
KHA2 250526Z 14008KT 16/10 A298 RMK A01 T01640097  RH  064%=      5-min Rain = 0
KHA2 250527Z 14008KT 16/10 A2981 RMK A01 T01640097  RH  065%=      5-min Rain = 0
KHA2 250528Z 14008KT 16/10 A2981 RMK A01 T01640097  RH  065%=      5-min Rain = 0
KHA2 250529Z 14008KT 16/10 A2981 RMK A01 T01630097  RH  065%=      5-min Rain = 0
KHA2 250530Z 14008KT 16/10 A2981 RMK A01 T01630097  RH  065%=      5-min Rain = 0
KHA2 250531Z 13008KT 16/10 A2981 RMK A01 T01630099  RH  066%=      5-min Rain = 0
KHA2 250532Z 13009KT 16/10 A2981 RMK A01 T01630099  RH  066%=      5-min Rain = 0
KHA2 250533Z 13007KT 16/10 A2981 RMK A01 T01620099  RH  066%=      5-min Rain = 0
KHA2 250534Z 15009G14KT 16/10 A2981 RMK A01 T01630102  RH  067%=      5-min Rain = 0
KHA2 250535Z 14012KT 16/11 A2982 RMK A01 T01630107  RH  069%=      5-min Rain = 0
KHA2 250536Z 15013KT 16/11 A2982 RMK A01 T01640109  RH  070%=      5-min Rain = 0
KHA2 250537Z 16014KT 16/11 A2982 RMK A01 T01640111  RH  071%=      5-min Rain = 0
KHA2 250538Z 15011KT 16/11 A2982 RMK A01 T01640111  RH  071%=      5-min Rain = 0
KHA2 250539Z 15013KT 16/11 A2982 RMK A01 T01640112  RH  071%=      5-min Rain = 0
KHA2 250540Z 16009KT 16/11 A2982 RMK A01 T01640113  RH  072%=      5-min Rain = 0
KHA2 250541Z 16011KT 16/11 A2982 RMK A01 T01630113  RH  072%=      5-min Rain = 0
KHA2 250542Z 16010KT 16/11 A2982 RMK A01 T01630114  RH  073%=      5-min Rain = 0
KHA2 250543Z 16010KT 16/11 A2982 RMK A01 T01620114  RH  073%=      5-min Rain = 0
KHA2 250544Z 16009KT 16/12 A2982 RMK A01 T01620115  RH  074%=      5-min Rain = 0
KHA2 250545Z 16009KT 16/12 A2982 RMK A01 T01620115  RH  074%=      5-min Rain = 0
KHA2 250546Z 15010KT 16/12 A2983 RMK A01 T01610115  RH  074%=      5-min Rain = 0
KHA2 250547Z 15009KT 16/12 A2983 RMK A01 T01620116  RH  074%=      5-min Rain = 0
KHA2 250548Z 16010KT 16/12 A2983 RMK A01 T01610116  RH  074%=      5-min Rain = 0
KHA2 250549Z 16011KT 16/12 A2983 RMK A01 T01610116  RH  074%=      5-min Rain = 0
KHA2 250550Z 16011KT 16/12 A2983 RMK A01 T01610116  RH  075%=      5-min Rain = 0
KHA2 250551Z 16010KT 16/12 A2984 RMK A01 T01610116  RH  075%=      5-min Rain = 0
KHA2 250552Z 16010KT 16/12 A2984 RMK A01 T01610117  RH  075%=      5-min Rain = 0
KHA2 250553Z 16012KT 16/12 A2984 RMK A01 T01600116  RH  075%=      5-min Rain = 0
KHA2 250554Z 17010KT 16/12 A2984 RMK A01 T01610117  RH  075%=      5-min Rain = 0
KHA2 250555Z 17010KT 16/12 A2984 RMK A01 T01600117  RH  075%=      5-min Rain = 0
KHA2 250556Z 17011KT 16/12 A2984 RMK A01 T01600117  RH  076%=      5-min Rain = 0
KHA2 250557Z 17012KT 16/12 A2984 RMK A01 T01590118  RH  076%=      5-min Rain = 0
KHA2 250558Z 18012KT 16/12 A2984 RMK A01 T01590118  RH  077%=      5-min Rain = 0
KHA2 250559Z 19012KT 16/12 A2984 RMK A01 T01580118  RH  077%=      5-min Rain = 0
KHA2 250600Z 18014KT 16/12 A2984 RMK A01 T01580119  RH  077%=      5-min Rain = 0
KHA2 250601Z 17011KT 16/12 A2984 RMK A01 T01570119  RH  078%=      5-min Rain = 0
KHA2 250602Z 17009KT 16/12 A2984 RMK A01 T01570119  RH  078%=      5-min Rain = 0
KHA2 250603Z 16011KT 16/12 A2985 RMK A01 T01560119  RH  078%=      5-min Rain = 0
KHA2 250604Z 15011KT 16/12 A2985 RMK A01 T01560119  RH  079%=      5-min Rain = 0
KHA2 250605Z 16010KT 16/12 A2985 RMK A01 T01560119  RH  079%=      5-min Rain = 0
KHA2 250606Z 16011KT 16/12 A2985 RMK A01 T01560119  RH  079%=      5-min Rain = 0
KHA2 250607Z 16014KT 16/12 A2986 RMK A01 T01560119  RH  079%=      5-min Rain = 0
KHA2 250608Z 16014KT 16/12 A2986 RMK A01 T01560119  RH  079%=      5-min Rain = 0
KHA2 250609Z 15011KT 16/12 A2986 RMK A01 T01550119  RH  079%=      5-min Rain = 0
KHA2 250610Z 15010KT 16/12 A2986 RMK A01 T01550119  RH  079%=      5-min Rain = 0
KHA2 250611Z 15011KT 16/12 A2987 RMK A01 T01550119  RH  079%=      5-min Rain = 0
KHA2 250612Z 15013KT 16/12 A2987 RMK A01 T01550119  RH  079%=      5-min Rain = 0
KHA2 250613Z 15013KT 15/12 A2987 RMK A01 T01540119  RH  080%=      5-min Rain = 0
KHA2 250614Z 15015KT 15/12 A2987 RMK A01 T01540120  RH  080%=      5-min Rain = 0
KHA2 250615Z 15013KT 15/12 A2987 RMK A01 T01540120  RH  080%=      5-min Rain = 0
KHA2 250616Z 14013KT 15/12 A2987 RMK A01 T01540120  RH  080%=      5-min Rain = 0
KHA2 250617Z 14014KT 15/12 A2987 RMK A01 T01540120  RH  080%=      5-min Rain = 0
KHA2 250618Z 14013KT 15/12 A2988 RMK A01 T01540120  RH  080%=      5-min Rain = 0
KHA2 250619Z 14011KT 15/12 A2988 RMK A01 T01540120  RH  080%=      5-min Rain = 0
KHA2 250620Z 13010KT 15/12 A2988 RMK A01 T01530120  RH  080%=      5-min Rain = 0
KHA2 250621Z 13013KT 15/12 A2989 RMK A01 T01530120  RH  081%=      5-min Rain = 0
KHA2 250622Z 14013KT 15/12 A2989 RMK A01 T01530120  RH  081%=      5-min Rain = 0
KHA2 250623Z 13012KT 15/12 A299 RMK A01 T01530120  RH  081%=      5-min Rain = 0
KHA2 250624Z 13012KT 15/12 A299 RMK A01 T01530120  RH  081%=      5-min Rain = 0
KHA2 250625Z 14010KT 15/12 A299 RMK A01 T01530120  RH  081%=      5-min Rain = 0
KHA2 250626Z 13008KT 15/12 A2991 RMK A01 T01530120  RH  081%=      5-min Rain = 0
KHA2 250627Z 14007KT 15/12 A2991 RMK A01 T01530120  RH  081%=      5-min Rain = 0
KHA2 250628Z 14009KT 15/12 A2991 RMK A01 T01520120  RH  081%=      5-min Rain = 0
KHA2 250629Z 12008KT 15/12 A2991 RMK A01 T01520120  RH  081%=      5-min Rain = 0
KHA2 250630Z 12010KT 15/12 A2991 RMK A01 T01520120  RH  081%=      5-min Rain = 0
KHA2 250631Z 13011KT 15/12 A2991 RMK A01 T01510120  RH  082%=      5-min Rain = 0
KHA2 250632Z 13012KT 15/12 A2991 RMK A01 T01510121  RH  082%=      5-min Rain = 0
KHA2 250633Z 14012KT 15/12 A2991 RMK A01 T01510121  RH  082%=      5-min Rain = 0
KHA2 250634Z 14012KT 15/12 A299 RMK A01 T01510121  RH  082%=      5-min Rain = 0
KHA2 250635Z 15013KT 15/12 A299 RMK A01 T01500121  RH  083%=      5-min Rain = 0
KHA2 250636Z 15013KT 15/12 A299 RMK A01 T01490120  RH  083%=      5-min Rain = 0
KHA2 250637Z 15015KT 15/12 A2989 RMK A01 T01480121  RH  084%=      5-min Rain = 0
KHA2 250638Z 14013KT 15/12 A2989 RMK A01 T01480121  RH  084%=      5-min Rain = 0
KHA2 250639Z 14013KT 15/12 A2989 RMK A01 T01470121  RH  084%=      5-min Rain = 0
KHA2 250640Z 14014KT 15/12 A299 RMK A01 T01460121  RH  085%=      5-min Rain = 0
KHA2 250641Z 14015KT 15/12 A299 RMK A01 T01460121  RH  085%=      5-min Rain = 0
KHA2 250642Z 14016KT 15/12 A299 RMK A01 T01460121  RH  085%=      5-min Rain = 0
KHA2 250643Z 14013KT 15/12 A2989 RMK A01 T01450121  RH  086%=      5-min Rain = 0
KHA2 250644Z 14013KT 15/12 A2989 RMK A01 T01450122  RH  086%=      5-min Rain = 0
KHA2 250645Z 15013KT 15/12 A2989 RMK A01 T01450122  RH  086%=      5-min Rain = 0
KHA2 250646Z 15013KT 15/12 A2989 RMK A01 T01450122  RH  086%=      5-min Rain = 0
KHA2 250647Z 15011KT 15/12 A299 RMK A01 T01450122  RH  086%=      5-min Rain = 0
KHA2 250648Z 15011KT 14/12 A299 RMK A01 T01440122  RH  086%=      5-min Rain = 0
KHA2 250649Z 15012KT 14/12 A299 RMK A01 T01440122  RH  086%=      5-min Rain = 0
KHA2 250650Z 15012KT 14/12 A299 RMK A01 T01440122  RH  087%=      5-min Rain = 0
KHA2 250651Z 15010KT 14/12 A299 RMK A01 T01440122  RH  087%=      5-min Rain = 0
KHA2 250652Z 15011KT 14/12 A299 RMK A01 T01440122  RH  087%=      5-min Rain = 0
KHA2 250653Z 16011KT 14/12 A299 RMK A01 T01440122  RH  087%=      5-min Rain = 0
KHA2 250654Z 16013KT 14/12 A299 RMK A01 T01440122  RH  087%=      5-min Rain = 0
KHA2 250655Z 16011KT 14/12 A299 RMK A01 T01440123  RH  087%=      5-min Rain = 0
KHA2 250656Z 16010KT 14/12 A299 RMK A01 T01430122  RH  087%=      5-min Rain = 0
KHA2 250657Z 16010KT 14/12 A299 RMK A01 T01430123  RH  087%=      5-min Rain = 0
KHA2 250658Z 16010KT 14/12 A2991 RMK A01 T01430123  RH  088%=      5-min Rain = 0
KHA2 250659Z 16009KT 14/12 A2991 RMK A01 T01420122  RH  088%=      5-min Rain = 0
KHA2 250700Z 16009KT 14/12 A2991 RMK A01 T01420123  RH  088%=      5-min Rain = 0
KHA2 250701Z 15009KT 14/12 A2992 RMK A01 T01420123  RH  088%=      5-min Rain = 0
KHA2 250702Z 15009KT 14/12 A2992 RMK A01 T01420123  RH  088%=      5-min Rain = 0
KHA2 250703Z 15008KT 14/12 A2993 RMK A01 T01420123  RH  088%=      5-min Rain = 0
KHA2 250704Z 14009KT 14/12 A2993 RMK A01 T01420123  RH  088%=      5-min Rain = 0
KHA2 250705Z 15010KT 14/12 A2993 RMK A01 T01420123  RH  089%=      5-min Rain = 0
KHA2 250706Z 15009KT 14/12 A2993 RMK A01 T01420123  RH  089%=      5-min Rain = 0
KHA2 250707Z 14008KT 14/12 A2993 RMK A01 T01420123  RH  089%=      5-min Rain = 0
KHA2 250708Z 15009KT 14/12 A2993 RMK A01 T01410123  RH  089%=      5-min Rain = 0
KHA2 250709Z 15011KT 14/12 A2993 RMK A01 T01410123  RH  089%=      5-min Rain = 0
KHA2 250710Z 15011KT 14/12 A2992 RMK A01 T01410123  RH  089%=      5-min Rain = 0
KHA2 250711Z 15011KT 14/12 A2992 RMK A01 T01410123  RH  089%=      5-min Rain = 0
KHA2 250712Z 15013KT 14/12 A2992 RMK A01 T01410123  RH  089%=      5-min Rain = 0
KHA2 250713Z 15013KT 14/12 A2992 RMK A01 T01400123  RH  089%=      5-min Rain = 0
KHA2 250714Z 15012KT 14/12 A2993 RMK A01 T01400123  RH  089%=      5-min Rain = 0
KHA2 250715Z 15010KT 14/12 A2993 RMK A01 T01400123  RH  089%=      5-min Rain = 0
KHA2 250716Z 15009KT 14/12 A2993 RMK A01 T01400123  RH  089%=      5-min Rain = 0
KHA2 250717Z 15009KT 14/12 A2993 RMK A01 T01400123  RH  089%=      5-min Rain = 0
KHA2 250718Z 15008KT 14/12 A2994 RMK A01 T01400123  RH  089%=      5-min Rain = 0
KHA2 250719Z 13007KT 14/12 A2994 RMK A01 T01400123  RH  089%=      5-min Rain = 0
KHA2 250720Z 14007KT 14/12 A2994 RMK A01 T01400123  RH  089%=      5-min Rain = 0
KHA2 250721Z 14007KT 14/12 A2994 RMK A01 T01400123  RH  089%=      5-min Rain = 0
KHA2 250722Z 14008KT 14/12 A2994 RMK A01 T01400123  RH  089%=      5-min Rain = 0
KHA2 250723Z 14008KT 14/12 A2995 RMK A01 T01400123  RH  089%=      5-min Rain = 0
KHA2 250724Z 14009KT 14/12 A2995 RMK A01 T01400123  RH  089%=      5-min Rain = 0
KHA2 250725Z 14009KT 14/12 A2995 RMK A01 T01400123  RH  089%=      5-min Rain = 0
KHA2 250726Z 14008KT 14/12 A2995 RMK A01 T01400123  RH  089%=      5-min Rain = 0
KHA2 250727Z 14007KT 14/12 A2995 RMK A01 T01400122  RH  089%=      5-min Rain = 0
KHA2 250728Z 13007KT 14/12 A2995 RMK A01 T01400122  RH  089%=      5-min Rain = 0
KHA2 250729Z 14006KT 14/12 A2996 RMK A01 T01390122  RH  089%=      5-min Rain = 0
KHA2 250730Z 13006KT 14/12 A2996 RMK A01 T01390122  RH  089%=      5-min Rain = 0
KHA2 250731Z 14007KT 14/12 A2996 RMK A01 T01400122  RH  089%=      5-min Rain = 0
KHA2 250732Z 14007KT 14/12 A2995 RMK A01 T01400122  RH  089%=      5-min Rain = 0
KHA2 250733Z 15008KT 14/12 A2995 RMK A01 T01400122  RH  089%=      5-min Rain = 0
KHA2 250734Z 15007KT 14/12 A2995 RMK A01 T01400123  RH  089%=      5-min Rain = 0
KHA2 250735Z 16006KT 14/12 A2995 RMK A01 T01400122  RH  089%=      5-min Rain = 0
KHA2 250736Z 16006KT 14/12 A2995 RMK A01 T01400122  RH  089%=      5-min Rain = 0
KHA2 250737Z 17005KT 14/12 A2995 RMK A01 T01390122  RH  089%=      5-min Rain = 0
KHA2 250738Z 16006KT 14/12 A2995 RMK A01 T01390122  RH  089%=      5-min Rain = 0
KHA2 250739Z 17005KT 14/12 A2996 RMK A01 T01390122  RH  090%=      5-min Rain = 0
KHA2 250740Z 16003KT 14/12 A2996 RMK A01 T01390122  RH  090%=      5-min Rain = 0
KHA2 250741Z 15003KT 14/12 A2996 RMK A01 T01390122  RH  089%=      5-min Rain = 0
KHA2 250742Z 16002KT 14/12 A2996 RMK A01 T01390122  RH  089%=      5-min Rain = 0
KHA2 250743Z 16002KT 14/12 A2996 RMK A01 T01390122  RH  089%=      5-min Rain = 0
KHA2 250744Z 15003KT 14/12 A2996 RMK A01 T01390122  RH  089%=      5-min Rain = 0
KHA2 250745Z 15004KT 14/12 A2996 RMK A01 T01390122  RH  089%=      5-min Rain = 0
KHA2 250746Z 15007KT 14/12 A2996 RMK A01 T01400121  RH  089%=      5-min Rain = 0
KHA2 250747Z 14006KT 14/12 A2996 RMK A01 T01390119  RH  088%=      5-min Rain = 0
KHA2 250748Z 15006KT 14/12 A2996 RMK A01 T01390119  RH  088%=      5-min Rain = 0
KHA2 250749Z 14005KT 14/12 A2996 RMK A01 T01390119  RH  087%=      5-min Rain = 0
KHA2 250750Z 14005KT 14/12 A2996 RMK A01 T01390119  RH  087%=      5-min Rain = 0
KHA2 250751Z 14004KT 14/12 A2996 RMK A01 T01390118  RH  087%=      5-min Rain = 0
KHA2 250752Z 13005KT 14/12 A2996 RMK A01 T01390119  RH  087%=      5-min Rain = 0
KHA2 250753Z 13005KT 14/12 A2996 RMK A01 T01390118  RH  087%=      5-min Rain = 0
KHA2 250754Z 14004KT 14/12 A2996 RMK A01 T01390118  RH  087%=      5-min Rain = 0
KHA2 250755Z 14003KT 14/12 A2996 RMK A01 T01390118  RH  087%=      5-min Rain = 0
KHA2 250756Z 15002KT 14/12 A2996 RMK A01 T01390118  RH  087%=      5-min Rain = 0
KHA2 250757Z 14002KT 14/12 A2996 RMK A01 T01390117  RH  087%=      5-min Rain = 0
KHA2 250758Z 15002KT 14/12 A2996 RMK A01 T01390118  RH  087%=      5-min Rain = 0
KHA2 250759Z 15003KT 14/12 A2996 RMK A01 T01390117  RH  087%=      5-min Rain = 0
KHA2 250800Z 15003KT 14/12 A2996 RMK A01 T01400118  RH  087%=      5-min Rain = 0
KHA2 250801Z 15004KT 14/12 A2995 RMK A01 T01400118  RH  086%=      5-min Rain = 0
KHA2 250802Z 15004KT 14/12 A2995 RMK A01 T01400118  RH  086%=      5-min Rain = 0
KHA2 250803Z 15004KT 14/12 A2995 RMK A01 T01400117  RH  086%=      5-min Rain = 0
KHA2 250804Z 15003KT 14/12 A2995 RMK A01 T01400117  RH  086%=      5-min Rain = 0
KHA2 250805Z 16003KT 14/12 A2995 RMK A01 T01390117  RH  086%=      5-min Rain = 0
KHA2 250806Z 16003KT 14/12 A2995 RMK A01 T01390117  RH  086%=      5-min Rain = 0
KHA2 250807Z 16003KT 14/12 A2995 RMK A01 T01390117  RH  087%=      5-min Rain = 0
KHA2 250808Z 16003KT 14/12 A2995 RMK A01 T01380116  RH  087%=      5-min Rain = 0
KHA2 250809Z 17003KT 14/12 A2995 RMK A01 T01380116  RH  087%=      5-min Rain = 0
KHA2 250810Z 17004KT 14/12 A2994 RMK A01 T01370116  RH  087%=      5-min Rain = 0
KHA2 250811Z 17004KT 14/12 A2994 RMK A01 T01370116  RH  087%=      5-min Rain = 0
KHA2 250812Z 18005KT 14/12 A2994 RMK A01 T01370116  RH  087%=      5-min Rain = 0
KHA2 250813Z 18005KT 14/12 A2993 RMK A01 T01360116  RH  087%=      5-min Rain = 0
KHA2 250814Z 19005KT 14/12 A2993 RMK A01 T01360116  RH  088%=      5-min Rain = 0
KHA2 250815Z 19005KT 14/12 A2993 RMK A01 T01360115  RH  087%=      5-min Rain = 0
KHA2 250816Z 19005KT 14/12 A2993 RMK A01 T01360115  RH  087%=      5-min Rain = 0
KHA2 250817Z 20005KT 14/12 A2993 RMK A01 T01360115  RH  087%=      5-min Rain = 0
KHA2 250818Z 21003KT 14/12 A2994 RMK A01 T01360115  RH  087%=      5-min Rain = 0
KHA2 250819Z 22003KT 14/12 A2994 RMK A01 T01360115  RH  087%=      5-min Rain = 0
KHA2 250820Z 23002KT 14/12 A2994 RMK A01 T01360115  RH  087%=      5-min Rain = 0
KHA2 250821Z 24002KT 14/12 A2994 RMK A01 T01360115  RH  087%=      5-min Rain = 0
KHA2 250822Z 26002KT 14/12 A2995 RMK A01 T01360115  RH  087%=      5-min Rain = 0
KHA2 250823Z 26002KT 14/12 A2995 RMK A01 T01360115  RH  087%=      5-min Rain = 0
KHA2 250824Z 25003KT 14/12 A2994 RMK A01 T01370115  RH  087%=      5-min Rain = 0
KHA2 250825Z 22004KT 14/12 A2994 RMK A01 T01370115  RH  086%=      5-min Rain = 0
KHA2 250826Z 21005KT 14/11 A2994 RMK A01 T01380114  RH  086%=      5-min Rain = 0
KHA2 250827Z 21006KT 14/11 A2994 RMK A01 T01370113  RH  085%=      5-min Rain = 0
KHA2 250828Z 21006KT 14/11 A2994 RMK A01 T01360112  RH  086%=      5-min Rain = 0
KHA2 250829Z 20008KT 14/11 A2994 RMK A01 T01350112  RH  086%=      5-min Rain = 0
KHA2 250830Z 20008KT 13/11 A2994 RMK A01 T01340113  RH  087%=      5-min Rain = 0
KHA2 250831Z 20007KT 13/11 A2994 RMK A01 T01340113  RH  087%=      5-min Rain = 0
KHA2 250832Z 20006KT 13/11 A2994 RMK A01 T01340114  RH  088%=      5-min Rain = 0
KHA2 250833Z 20005KT 13/11 A2994 RMK A01 T01330114  RH  088%=      5-min Rain = 0
KHA2 250834Z 20003KT 13/11 A2995 RMK A01 T01330114  RH  088%=      5-min Rain = 0
KHA2 250835Z 21003KT 13/11 A2995 RMK A01 T01330114  RH  088%=      5-min Rain = 0
KHA2 250836Z 22003KT 13/11 A2995 RMK A01 T01330114  RH  088%=      5-min Rain = 0
KHA2 250837Z 22003KT 13/11 A2995 RMK A01 T01330114  RH  088%=      5-min Rain = 0
KHA2 250838Z 23004KT 13/12 A2994 RMK A01 T01340115  RH  088%=      5-min Rain = 0
KHA2 250839Z 23004KT 13/11 A2994 RMK A01 T01340114  RH  088%=      5-min Rain = 0
KHA2 250840Z 23005KT 13/11 A2994 RMK A01 T01340114  RH  088%=      5-min Rain = 0
KHA2 250841Z 24005KT 13/11 A2994 RMK A01 T01340114  RH  088%=      5-min Rain = 0
KHA2 250842Z 25005KT 13/11 A2994 RMK A01 T01340113  RH  087%=      5-min Rain = 0
KHA2 250843Z 26004KT 13/11 A2994 RMK A01 T01340113  RH  087%=      5-min Rain = 0
KHA2 250844Z 26004KT 13/11 A2994 RMK A01 T01340114  RH  087%=      5-min Rain = 0
KHA2 250845Z 27005KT 14/11 A2994 RMK A01 T01350114  RH  087%=      5-min Rain = 0
KHA2 250846Z 27005KT 14/12 A2994 RMK A01 T01360115  RH  087%=      5-min Rain = 0
KHA2 250847Z 27005KT 14/12 A2994 RMK A01 T01360115  RH  087%=      5-min Rain = 0
KHA2 250848Z 27006KT 14/12 A2994 RMK A01 T01360115  RH  087%=      5-min Rain = 0
KHA2 250849Z 27006KT 14/12 A2994 RMK A01 T01360115  RH  087%=      5-min Rain = 0
KHA2 250850Z 27007KT 14/12 A2994 RMK A01 T01370116  RH  087%=      5-min Rain = 0
KHA2 250851Z 27006KT 14/12 A2994 RMK A01 T01370116  RH  087%=      5-min Rain = 0
KHA2 250852Z 27006KT 14/12 A2994 RMK A01 T01370117  RH  088%=      5-min Rain = 0
KHA2 250853Z 27006KT 14/12 A2994 RMK A01 T01370117  RH  088%=      5-min Rain = 0
KHA2 250854Z 27006KT 14/12 A2994 RMK A01 T01370117  RH  087%=      5-min Rain = 0
KHA2 250855Z 27006KT 14/12 A2994 RMK A01 T01380117  RH  087%=      5-min Rain = 0
KHA2 250856Z 27006KT 14/12 A2994 RMK A01 T01380118  RH  088%=      5-min Rain = 0
KHA2 250857Z 27006KT 14/12 A2994 RMK A01 T01380118  RH  088%=      5-min Rain = 0
KHA2 250858Z 27006KT 14/12 A2994 RMK A01 T01380118  RH  088%=      5-min Rain = 0
KHA2 250859Z 28006KT 14/12 A2994 RMK A01 T01390118  RH  088%=      5-min Rain = 0
KHA2 250900Z 28007KT 14/12 A2994 RMK A01 T01390119  RH  087%=      5-min Rain = 0
KHA2 250901Z 28006KT 14/12 A2994 RMK A01 T01390119  RH  087%=      5-min Rain = 0
KHA2 250902Z 29006KT 14/12 A2994 RMK A01 T01400119  RH  087%=      5-min Rain = 0
KHA2 250903Z 29006KT 14/12 A2994 RMK A01 T01400119  RH  087%=      5-min Rain = 0
KHA2 250904Z 29006KT 14/12 A2994 RMK A01 T01400119  RH  087%=      5-min Rain = 0
KHA2 250905Z 29006KT 14/12 A2994 RMK A01 T01400119  RH  087%=      5-min Rain = 0
KHA2 250906Z 29006KT 14/12 A2994 RMK A01 T01400120  RH  087%=      5-min Rain = 0
KHA2 250907Z 30006KT 14/12 A2994 RMK A01 T01400120  RH  087%=      5-min Rain = 0
KHA2 250908Z 29007KT 14/12 A2994 RMK A01 T01410119  RH  087%=      5-min Rain = 0
KHA2 250909Z 29007KT 14/12 A2994 RMK A01 T01410119  RH  087%=      5-min Rain = 0
KHA2 250910Z 29008KT 14/12 A2994 RMK A01 T01410120  RH  087%=      5-min Rain = 0
KHA2 250911Z 28008KT 14/12 A2994 RMK A01 T01420120  RH  087%=      5-min Rain = 0
KHA2 250912Z 29007KT 14/12 A2994 RMK A01 T01420119  RH  086%=      5-min Rain = 0
KHA2 250913Z 28007KT 14/12 A2994 RMK A01 T01420119  RH  086%=      5-min Rain = 0
KHA2 250914Z 29007KT 14/12 A2994 RMK A01 T01420119  RH  086%=      5-min Rain = 0
KHA2 250915Z 29008KT 14/12 A2994 RMK A01 T01430119  RH  086%=      5-min Rain = 0
KHA2 250916Z 29008KT 14/12 A2994 RMK A01 T01420119  RH  086%=      5-min Rain = 0
KHA2 250917Z 30007KT 14/12 A2995 RMK A01 T01430119  RH  086%=      5-min Rain = 0
KHA2 250918Z 29007KT 14/12 A2995 RMK A01 T01430119  RH  085%=      5-min Rain = 0
KHA2 250919Z 30006KT 14/12 A2995 RMK A01 T01440119  RH  085%=      5-min Rain = 0
KHA2 250920Z 30007KT 14/12 A2995 RMK A01 T01440119  RH  085%=      5-min Rain = 0
KHA2 250921Z 29007KT 14/12 A2995 RMK A01 T01440119  RH  085%=      5-min Rain = 0
KHA2 250922Z 29007KT 14/12 A2995 RMK A01 T01440119  RH  085%=      5-min Rain = 0
KHA2 250923Z 29007KT 15/12 A2995 RMK A01 T01450120  RH  085%=      5-min Rain = 0
KHA2 250924Z 29008KT 15/12 A2994 RMK A01 T01450120  RH  085%=      5-min Rain = 0
KHA2 250925Z 29007KT 15/12 A2994 RMK A01 T01450120  RH  085%=      5-min Rain = 0
KHA2 250926Z 29006KT 15/12 A2994 RMK A01 T01450120  RH  085%=      5-min Rain = 0
KHA2 250927Z 30006KT 15/12 A2994 RMK A01 T01450120  RH  085%=      5-min Rain = 0
KHA2 250928Z 29006KT 15/12 A2994 RMK A01 T01460120  RH  084%=      5-min Rain = 0
KHA2 250929Z 30006KT 15/12 A2994 RMK A01 T01460120  RH  084%=      5-min Rain = 0
KHA2 250930Z 31007KT 15/12 A2994 RMK A01 T01460120  RH  084%=      5-min Rain = 0
KHA2 250931Z 31008KT 15/12 A2995 RMK A01 T01460120  RH  084%=      5-min Rain = 0
KHA2 250932Z 31008KT 15/12 A2995 RMK A01 T01470121  RH  084%=      5-min Rain = 0
KHA2 250933Z 31009KT 15/12 A2995 RMK A01 T01470121  RH  084%=      5-min Rain = 0
KHA2 250934Z 31010KT 15/12 A2995 RMK A01 T01490121  RH  084%=      5-min Rain = 0
KHA2 250935Z 31010KT 15/12 A2995 RMK A01 T01490121  RH  083%=      5-min Rain = 0
KHA2 250936Z 32010KT 15/12 A2995 RMK A01 T01500120  RH  083%=      5-min Rain = 0
KHA2 250937Z 32012KT 15/12 A2994 RMK A01 T01500120  RH  082%=      5-min Rain = 0
KHA2 250938Z 32012KT 15/12 A2994 RMK A01 T01510119  RH  082%=      5-min Rain = 0
KHA2 250939Z 33011KT 15/12 A2994 RMK A01 T01510119  RH  081%=      5-min Rain = 0
KHA2 250940Z 33012KT 15/12 A2994 RMK A01 T01510119  RH  081%=      5-min Rain = 0
KHA2 250941Z 33012KT 15/12 A2994 RMK A01 T01510116  RH  080%=      5-min Rain = 0
KHA2 250942Z 34011KT 15/12 A2994 RMK A01 T01500116  RH  080%=      5-min Rain = 0
KHA2 250943Z 34011KT 15/12 A2994 RMK A01 T01490116  RH  080%=      5-min Rain = 0
KHA2 250944Z 34012KT 15/12 A2994 RMK A01 T01490115  RH  080%=      5-min Rain = 0
KHA2 250945Z 34013KT 15/12 A2994 RMK A01 T01490115  RH  080%=      5-min Rain = 0
KHA2 250946Z 34012KT 15/12 A2994 RMK A01 T01480115  RH  081%=      5-min Rain = 0
KHA2 250947Z 34013KT 15/12 A2994 RMK A01 T01480115  RH  081%=      5-min Rain = 0
KHA2 250948Z 33012KT 15/12 A2994 RMK A01 T01480115  RH  080%=      5-min Rain = 0
KHA2 250949Z 34012KT 15/11 A2994 RMK A01 T01480114  RH  080%=      5-min Rain = 0
KHA2 250950Z 34013KT 15/11 A2994 RMK A01 T01480114  RH  080%=      5-min Rain = 0
KHA2 250951Z 33015KT 15/11 A2994 RMK A01 T01480114  RH  080%=      5-min Rain = 0
KHA2 250952Z 33014KT 15/11 A2994 RMK A01 T01480109  RH  077%=      5-min Rain = 0
KHA2 250953Z 33013KT 15/10 A2994 RMK A01 T01480104  RH  075%=      5-min Rain = 0
KHA2 250954Z 33015KT 15/10 A2994 RMK A01 T01480100  RH  073%=      5-min Rain = 0
KHA2 250955Z 33014KT 15/09 A2994 RMK A01 T01470093  RH  070%=      5-min Rain = 0
KHA2 250956Z 34015KT 15/09 A2994 RMK A01 T01460091  RH  069%=      5-min Rain = 0
KHA2 250957Z 34015KT 15/09 A2994 RMK A01 T01460089  RH  069%=      5-min Rain = 0
KHA2 250958Z 34014KT 15/09 A2994 RMK A01 T01460088  RH  068%=      5-min Rain = 0
KHA2 250959Z 34014KT 15/09 A2994 RMK A01 T01450087  RH  068%=      5-min Rain = 0
KHA2 251000Z 34015KT 15/09 A2994 RMK A01 T01450085  RH  067%=      5-min Rain = 0
KHA2 251001Z 34015KT 14/08 A2994 RMK A01 T01440082  RH  066%=      5-min Rain = 0
KHA2 251002Z 33017KT 14/08 A2994 RMK A01 T01440078  RH  065%=      5-min Rain = 0
KHA2 251003Z 34017KT 14/07 A2994 RMK A01 T01430074  RH  064%=      5-min Rain = 0
KHA2 251004Z 34015KT 14/07 A2994 RMK A01 T01420074  RH  064%=      5-min Rain = 0
KHA2 251005Z 34016KT 14/07 A2994 RMK A01 T01420074  RH  064%=      5-min Rain = 0
KHA2 251006Z 33017KT 14/07 A2994 RMK A01 T01420073  RH  063%=      5-min Rain = 0
KHA2 251007Z 34019KT 14/07 A2994 RMK A01 T01410072  RH  063%=      5-min Rain = 0
KHA2 251008Z 34017KT 14/07 A2994 RMK A01 T01390071  RH  063%=      5-min Rain = 0
KHA2 251009Z 34019KT 14/07 A2994 RMK A01 T01390071  RH  064%=      5-min Rain = 0
KHA2 251010Z 34018KT 14/07 A2994 RMK A01 T01380071  RH  064%=      5-min Rain = 0
KHA2 251011Z 34018KT 14/07 A2994 RMK A01 T01370071  RH  064%=      5-min Rain = 0
KHA2 251012Z 34018KT 14/07 A2994 RMK A01 T01370071  RH  064%=      5-min Rain = 0
KHA2 251013Z 34018KT 14/07 A2994 RMK A01 T01360071  RH  065%=      5-min Rain = 0
KHA2 251014Z 34019KT 14/07 A2994 RMK A01 T01360071  RH  065%=      5-min Rain = 0
KHA2 251015Z 35019KT 14/07 A2994 RMK A01 T01360071  RH  065%=      5-min Rain = 0
KHA2 251016Z 35020KT 14/07 A2993 RMK A01 T01360071  RH  065%=      5-min Rain = 0
KHA2 251017Z 35019KT 14/07 A2994 RMK A01 T01360071  RH  065%=      5-min Rain = 0
KHA2 251018Z 34020KT 14/07 A2993 RMK A01 T01350070  RH  065%=      5-min Rain = 0
KHA2 251019Z 35018KT 14/07 A2994 RMK A01 T01350071  RH  065%=      5-min Rain = 0
KHA2 251020Z 35017KT 14/07 A2994 RMK A01 T01350071  RH  065%=      5-min Rain = 0
KHA2 251021Z 35018KT 14/07 A2994 RMK A01 T01350071  RH  065%=      5-min Rain = 0
KHA2 251022Z 35016KT 14/07 A2994 RMK A01 T01350071  RH  065%=      5-min Rain = 0
KHA2 251023Z 35016KT 14/07 A2994 RMK A01 T01350072  RH  066%=      5-min Rain = 0
KHA2 251024Z 35020KT 13/07 A2994 RMK A01 T01340071  RH  066%=      5-min Rain = 0
KHA2 251025Z 35016KT 13/07 A2994 RMK A01 T01340071  RH  066%=      5-min Rain = 0
KHA2 251026Z 35018KT 13/07 A2994 RMK A01 T01340071  RH  066%=      5-min Rain = 0
KHA2 251027Z 35018KT 13/07 A2994 RMK A01 T01330071  RH  066%=      5-min Rain = 0
KHA2 251028Z 35016KT 13/07 A2994 RMK A01 T01330071  RH  066%=      5-min Rain = 0
KHA2 251029Z 36017KT 13/07 A2994 RMK A01 T01320071  RH  066%=      5-min Rain = 0
KHA2 251030Z 35015KT 13/07 A2995 RMK A01 T01320071  RH  067%=      5-min Rain = 0
KHA2 251031Z 00015KT 13/07 A2995 RMK A01 T01320072  RH  067%=      5-min Rain = 0
KHA2 251032Z 36014KT 13/07 A2995 RMK A01 T01310071  RH  067%=      5-min Rain = 0
KHA2 251033Z 35014KT 13/07 A2995 RMK A01 T01310072  RH  067%=      5-min Rain = 0
KHA2 251034Z 36015KT 13/07 A2995 RMK A01 T01310072  RH  067%=      5-min Rain = 0
KHA2 251035Z 36014KT 13/07 A2995 RMK A01 T01310072  RH  067%=      5-min Rain = 0
KHA2 251036Z 36016KT 13/07 A2995 RMK A01 T01300072  RH  068%=      5-min Rain = 0
KHA2 251037Z 36017KT 13/07 A2995 RMK A01 T01300072  RH  068%=      5-min Rain = 0
KHA2 251038Z 36018KT 13/07 A2995 RMK A01 T01300072  RH  068%=      5-min Rain = 0
KHA2 251039Z 00017KT 13/07 A2995 RMK A01 T01300072  RH  068%=      5-min Rain = 0
KHA2 251040Z 35017KT 13/07 A2995 RMK A01 T01290072  RH  068%=      5-min Rain = 0
KHA2 251041Z 36016KT 13/07 A2995 RMK A01 T01290072  RH  068%=      5-min Rain = 0
KHA2 251042Z 35016KT 13/07 A2995 RMK A01 T01290072  RH  068%=      5-min Rain = 0
KHA2 251043Z 36014KT 13/07 A2995 RMK A01 T01290072  RH  068%=      5-min Rain = 0
KHA2 251044Z 35014KT 13/07 A2995 RMK A01 T01290072  RH  068%=      5-min Rain = 0
KHA2 251045Z 35013KT 13/07 A2995 RMK A01 T01280072  RH  069%=      5-min Rain = 0
KHA2 251046Z 35013KT 13/07 A2995 RMK A01 T01280072  RH  069%=      5-min Rain = 0
KHA2 251047Z 35015KT 13/07 A2995 RMK A01 T01280072  RH  069%=      5-min Rain = 0
KHA2 251048Z 35015KT 13/07 A2994 RMK A01 T01280072  RH  069%=      5-min Rain = 0
KHA2 251049Z 35016KT 13/07 A2994 RMK A01 T01280072  RH  069%=      5-min Rain = 0
KHA2 251050Z 34014KT 13/07 A2995 RMK A01 T01280072  RH  069%=      5-min Rain = 0
KHA2 251051Z 34014KT 13/07 A2995 RMK A01 T01280072  RH  069%=      5-min Rain = 0
KHA2 251052Z 35014KT 13/07 A2995 RMK A01 T01280073  RH  069%=      5-min Rain = 0
KHA2 251053Z 35014KT 13/07 A2995 RMK A01 T01270072  RH  069%=      5-min Rain = 0
KHA2 251054Z 35017KT 13/07 A2995 RMK A01 T01270073  RH  069%=      5-min Rain = 0
KHA2 251055Z 35017KT 13/07 A2995 RMK A01 T01270073  RH  070%=      5-min Rain = 0
KHA2 251056Z 36018KT 13/07 A2995 RMK A01 T01270073  RH  070%=      5-min Rain = 0
KHA2 251057Z 35017KT 13/07 A2995 RMK A01 T01270074  RH  070%=      5-min Rain = 0
KHA2 251058Z 35018KT 13/07 A2995 RMK A01 T01270074  RH  070%=      5-min Rain = 0
KHA2 251059Z 35016KT 13/07 A2995 RMK A01 T01270074  RH  070%=      5-min Rain = 0
KHA2 251100Z 35017KT 13/07 A2995 RMK A01 T01260074  RH  071%=      5-min Rain = 0
KHA2 251101Z 36016KT 13/07 A2995 RMK A01 T01260074  RH  071%=      5-min Rain = 0
KHA2 251102Z 35018KT 13/07 A2995 RMK A01 T01250074  RH  071%=      5-min Rain = 0
KHA2 251103Z 36015KT 13/07 A2995 RMK A01 T01250074  RH  071%=      5-min Rain = 0
KHA2 251104Z 36014KT 13/08 A2995 RMK A01 T01250075  RH  071%=      5-min Rain = 0
KHA2 251105Z 36017KT 13/08 A2995 RMK A01 T01250075  RH  071%=      5-min Rain = 0
KHA2 251106Z 35017KT 13/08 A2995 RMK A01 T01250075  RH  071%=      5-min Rain = 0
KHA2 251107Z 36016KT 13/08 A2995 RMK A01 T01250075  RH  071%=      5-min Rain = 0
KHA2 251108Z 36014KT 13/08 A2996 RMK A01 T01250075  RH  071%=      5-min Rain = 0
KHA2 251109Z 00013KT 13/08 A2996 RMK A01 T01250075  RH  071%=      5-min Rain = 0
KHA2 251110Z 36015KT 13/08 A2995 RMK A01 T01250075  RH  071%=      5-min Rain = 0
KHA2 251111Z 36014KT 13/08 A2996 RMK A01 T01250075  RH  071%=      5-min Rain = 0
KHA2 251112Z 36012KT 13/08 A2996 RMK A01 T01250075  RH  071%=      5-min Rain = 0
KHA2 251113Z 00012KT 13/08 A2996 RMK A01 T01250075  RH  072%=      5-min Rain = 0
KHA2 251114Z 35013KT 13/08 A2996 RMK A01 T01250075  RH  072%=      5-min Rain = 0
KHA2 251115Z 35016KT 13/08 A2996 RMK A01 T01250075  RH  072%=      5-min Rain = 0
KHA2 251116Z 35013KT 13/08 A2996 RMK A01 T01250075  RH  072%=      5-min Rain = 0
KHA2 251117Z 35016KT 13/08 A2996 RMK A01 T01250075  RH  071%=      5-min Rain = 0
KHA2 251118Z 35016KT 13/08 A2996 RMK A01 T01250075  RH  072%=      5-min Rain = 0
KHA2 251119Z 35016KT 13/08 A2996 RMK A01 T01260076  RH  072%=      5-min Rain = 0
KHA2 251120Z 35015KT 13/08 A2996 RMK A01 T01260076  RH  072%=      5-min Rain = 0
KHA2 251121Z 35017KT 13/08 A2996 RMK A01 T01250076  RH  072%=      5-min Rain = 0
KHA2 251122Z 35015G21KT 13/08 A2996 RMK A01 T01250076  RH  072%=      5-min Rain = 0
KHA2 251123Z 35019G25KT 13/08 A2996 RMK A01 T01250076  RH  072%=      5-min Rain = 0
KHA2 251124Z 36020KT 13/08 A2996 RMK A01 T01260076  RH  072%=      5-min Rain = 0
KHA2 251125Z 36016KT 13/08 A2996 RMK A01 T01250077  RH  072%=      5-min Rain = 0
KHA2 251126Z 35019G24KT 13/08 A2996 RMK A01 T01250077  RH  072%=      5-min Rain = 0
KHA2 251127Z 35019KT 13/08 A2996 RMK A01 T01250077  RH  072%=      5-min Rain = 0
KHA2 251128Z 36018KT 13/08 A2996 RMK A01 T01250077  RH  072%=      5-min Rain = 0
KHA2 251129Z 36016KT 13/08 A2996 RMK A01 T01250077  RH  073%=      5-min Rain = 0
KHA2 251130Z 36017KT 12/08 A2996 RMK A01 T01240077  RH  073%=      5-min Rain = 0
KHA2 251131Z 36015KT 12/08 A2996 RMK A01 T01240077  RH  073%=      5-min Rain = 0
KHA2 251132Z 36016KT 12/08 A2996 RMK A01 T01240077  RH  073%=      5-min Rain = 0
KHA2 251133Z 35015KT 12/08 A2996 RMK A01 T01240077  RH  073%=      5-min Rain = 0
KHA2 251134Z 36013KT 12/08 A2996 RMK A01 T01240078  RH  073%=      5-min Rain = 0
KHA2 251135Z 36014KT 12/08 A2997 RMK A01 T01230077  RH  074%=      5-min Rain = 0
KHA2 251136Z 35014KT 12/08 A2997 RMK A01 T01220077  RH  074%=      5-min Rain = 0
KHA2 251137Z 36012KT 12/08 A2996 RMK A01 T01220077  RH  074%=      5-min Rain = 0
KHA2 251138Z 36013KT 12/08 A2996 RMK A01 T01220077  RH  074%=      5-min Rain = 0
KHA2 251139Z 35013KT 12/08 A2996 RMK A01 T01220077  RH  074%=      5-min Rain = 0
KHA2 251140Z 35011KT 12/08 A2996 RMK A01 T01220077  RH  074%=      5-min Rain = 0
KHA2 251141Z 36013KT 12/08 A2997 RMK A01 T01220077  RH  074%=      5-min Rain = 0
KHA2 251142Z 35015KT 12/08 A2996 RMK A01 T01210077  RH  074%=      5-min Rain = 0
KHA2 251143Z 00014KT 12/08 A2997 RMK A01 T01210078  RH  075%=      5-min Rain = 0
KHA2 251144Z 36015KT 12/08 A2997 RMK A01 T01210078  RH  075%=      5-min Rain = 0
KHA2 251145Z 36013KT 12/08 A2997 RMK A01 T01210078  RH  075%=      5-min Rain = 0
KHA2 251146Z 36014KT 12/08 A2997 RMK A01 T01210078  RH  075%=      5-min Rain = 0
KHA2 251147Z 36012KT 12/08 A2997 RMK A01 T01210078  RH  075%=      5-min Rain = 0
KHA2 251148Z 36016KT 12/08 A2997 RMK A01 T01210078  RH  075%=      5-min Rain = 0
KHA2 251149Z 35016KT 12/08 A2997 RMK A01 T01210078  RH  075%=      5-min Rain = 0
KHA2 251150Z 35015KT 12/08 A2997 RMK A01 T01210079  RH  075%=      5-min Rain = 0
KHA2 251151Z 35014KT 12/08 A2997 RMK A01 T01210079  RH  075%=      5-min Rain = 0
KHA2 251152Z 35012KT 12/08 A2997 RMK A01 T01210079  RH  075%=      5-min Rain = 0
KHA2 251153Z 35015KT 12/08 A2997 RMK A01 T01210079  RH  076%=      5-min Rain = 0
KHA2 251154Z 00014KT 12/08 A2997 RMK A01 T01210079  RH  076%=      5-min Rain = 0
KHA2 251155Z 36017KT 12/08 A2997 RMK A01 T01210080  RH  076%=      5-min Rain = 0
KHA2 251156Z 00015KT 12/08 A2997 RMK A01 T01200080  RH  076%=      5-min Rain = 0
KHA2 251157Z 36013KT 12/08 A2997 RMK A01 T01200080  RH  076%=      5-min Rain = 0
KHA2 251158Z 35013KT 12/08 A2998 RMK A01 T01200080  RH  077%=      5-min Rain = 0
KHA2 251159Z 35014KT 12/08 A2997 RMK A01 T01200080  RH  077%=      5-min Rain = 0
KHA2 251200Z 35015KT 12/08 A2998 RMK A01 T01190080  RH  077%=      5-min Rain = 0
KHA2 251201Z 36015KT 12/08 A2998 RMK A01 T01200080  RH  077%=      5-min Rain = 0
KHA2 251202Z 35013KT 12/08 A2998 RMK A01 T01200081  RH  077%=      5-min Rain = 0
KHA2 251203Z 35013KT 12/08 A2998 RMK A01 T01200081  RH  077%=      5-min Rain = 0
KHA2 251204Z 35014KT 12/08 A2998 RMK A01 T01200081  RH  077%=      5-min Rain = 0
KHA2 251205Z 35015KT 12/08 A2998 RMK A01 T01200081  RH  077%=      5-min Rain = 0
KHA2 251206Z 35014KT 12/08 A2998 RMK A01 T01200081  RH  077%=      5-min Rain = 0
KHA2 251207Z 35013KT 12/08 A2998 RMK A01 T01190081  RH  077%=      5-min Rain = 0
KHA2 251208Z 35012KT 12/08 A2998 RMK A01 T01200082  RH  078%=      5-min Rain = 0
KHA2 251209Z 36013KT 12/08 A2998 RMK A01 T01200082  RH  078%=      5-min Rain = 0
KHA2 251210Z 35015KT 12/08 A2998 RMK A01 T01190082  RH  078%=      5-min Rain = 0
KHA2 251211Z 36014KT 12/08 A2998 RMK A01 T01190083  RH  078%=      5-min Rain = 0
KHA2 251212Z 36013KT 12/08 A2998 RMK A01 T01190083  RH  078%=      5-min Rain = 0
KHA2 251213Z 35012KT 12/08 A2998 RMK A01 T01190083  RH  079%=      5-min Rain = 0
KHA2 251214Z 35012G17KT 12/08 A2998 RMK A01 T01190083  RH  079%=      5-min Rain = 0
KHA2 251215Z 35014KT 12/08 A2998 RMK A01 T01190083  RH  079%=      5-min Rain = 0
KHA2 251216Z 36013KT 12/08 A2998 RMK A01 T01190082  RH  078%=      5-min Rain = 0
KHA2 251217Z 36015KT 12/08 A2998 RMK A01 T01190083  RH  079%=      5-min Rain = 0
KHA2 251218Z 36013KT 12/08 A2998 RMK A01 T01190083  RH  079%=      5-min Rain = 0
KHA2 251219Z 36015KT 12/08 A2998 RMK A01 T01190083  RH  079%=      5-min Rain = 0
KHA2 251220Z 36015KT 12/08 A2998 RMK A01 T01190083  RH  079%=      5-min Rain = 0
KHA2 251221Z 36014KT 12/08 A2999 RMK A01 T01190083  RH  079%=      5-min Rain = 0
KHA2 251222Z 36016KT 12/08 A2998 RMK A01 T01190083  RH  079%=      5-min Rain = 0
KHA2 251223Z 36017KT 12/08 A2999 RMK A01 T01190083  RH  079%=      5-min Rain = 0
KHA2 251224Z 36017KT 12/08 A2998 RMK A01 T01190083  RH  079%=      5-min Rain = 0
KHA2 251225Z 35016KT 12/08 A2999 RMK A01 T01190083  RH  079%=      5-min Rain = 0
KHA2 251226Z 35019KT 12/08 A2998 RMK A01 T01190083  RH  079%=      5-min Rain = 0
KHA2 251227Z 35016KT 12/08 A2998 RMK A01 T01190083  RH  079%=      5-min Rain = 0
KHA2 251228Z 35014KT 12/08 A2999 RMK A01 T01180083  RH  079%=      5-min Rain = 0
KHA2 251229Z 35012KT 12/08 A2999 RMK A01 T01180083  RH  079%=      5-min Rain = 0
KHA2 251230Z 36011KT 12/08 A2999 RMK A01 T01180083  RH  079%=      5-min Rain = 0
KHA2 251231Z 35015KT 12/08 A2999 RMK A01 T01180083  RH  079%=      5-min Rain = 0
KHA2 251232Z 35014KT 12/08 A2999 RMK A01 T01180083  RH  079%=      5-min Rain = 0
KHA2 251233Z 35014KT 12/08 A2998 RMK A01 T01180083  RH  079%=      5-min Rain = 0
KHA2 251234Z 35012KT 12/08 A2999 RMK A01 T01180083  RH  079%=      5-min Rain = 0
KHA2 251235Z 35015KT 12/08 A2999 RMK A01 T01180083  RH  079%=      5-min Rain = 0
KHA2 251236Z 35012KT 12/08 A2999 RMK A01 T01180083  RH  079%=      5-min Rain = 0
KHA2 251237Z 36014KT 12/08 A2999 RMK A01 T01180083  RH  079%=      5-min Rain = 0
KHA2 251238Z 35013KT 12/08 A2999 RMK A01 T01180083  RH  079%=      5-min Rain = 0
KHA2 251239Z 35018KT 12/08 A2999 RMK A01 T01170082  RH  079%=      5-min Rain = 0
KHA2 251240Z 35015KT 12/08 A2999 RMK A01 T01170082  RH  079%=      5-min Rain = 0
KHA2 251241Z 36014KT 12/08 A2999 RMK A01 T01170082  RH  079%=      5-min Rain = 0
KHA2 251242Z 35014KT 12/08 A2999 RMK A01 T01170082  RH  079%=      5-min Rain = 0
KHA2 251243Z 35012KT 12/08 A2999 RMK A01 T01170082  RH  079%=      5-min Rain = 0
KHA2 251244Z 36012KT 12/08 A2999 RMK A01 T01170082  RH  079%=      5-min Rain = 0
KHA2 251245Z 36014KT 12/08 A2999 RMK A01 T01170082  RH  079%=      5-min Rain = 0
KHA2 251246Z 35015KT 12/08 A2999 RMK A01 T01170082  RH  079%=      5-min Rain = 0
KHA2 251247Z 35015KT 12/08 A2999 RMK A01 T01170082  RH  079%=      5-min Rain = 0
KHA2 251248Z 35014KT 12/08 A2999 RMK A01 T01170082  RH  079%=      5-min Rain = 0
KHA2 251249Z 35017KT 12/08 A2999 RMK A01 T01170082  RH  079%=      5-min Rain = 0
KHA2 251250Z 36015KT 12/08 A2999 RMK A01 T01170082  RH  079%=      5-min Rain = 0
KHA2 251251Z 36017KT 12/08 A2998 RMK A01 T01170082  RH  079%=      5-min Rain = 0
KHA2 251252Z 36018KT 12/08 A2999 RMK A01 T01170083  RH  079%=      5-min Rain = 0
KHA2 251253Z 36017KT 12/08 A2998 RMK A01 T01170082  RH  079%=      5-min Rain = 0
KHA2 251254Z 36017KT 12/08 A2998 RMK A01 T01170082  RH  079%=      5-min Rain = 0
KHA2 251255Z 36015KT 12/08 A2998 RMK A01 T01170082  RH  079%=      5-min Rain = 0
KHA2 251256Z 00017G22KT 12/08 A2998 RMK A01 T01170082  RH  079%=      5-min Rain = 0
KHA2 251257Z 36019KT 12/08 A2998 RMK A01 T01170082  RH  079%=      5-min Rain = 0
KHA2 251258Z 36017KT 12/08 A2998 RMK A01 T01170082  RH  079%=      5-min Rain = 0
KHA2 251259Z 36015KT 12/08 A2998 RMK A01 T01180083  RH  079%=      5-min Rain = 0
KHA2 251300Z 36017G22KT 12/08 A2998 RMK A01 T01180083  RH  079%=      5-min Rain = 0
KHA2 251301Z 35021KT 12/08 A2998 RMK A01 T01180083  RH  079%=      5-min Rain = 0
KHA2 251302Z 36019KT 12/08 A2998 RMK A01 T01180083  RH  079%=      5-min Rain = 0
KHA2 251303Z 36018KT 12/08 A2998 RMK A01 T01190083  RH  079%=      5-min Rain = 0
KHA2 251304Z 36018KT 12/08 A2998 RMK A01 T01190083  RH  079%=      5-min Rain = 0
KHA2 251305Z 00018KT 12/08 A2998 RMK A01 T01190083  RH  079%=      5-min Rain = 0
KHA2 251306Z 36016KT 12/08 A2998 RMK A01 T01190083  RH  079%=      5-min Rain = 0
KHA2 251307Z 36019KT 12/08 A2998 RMK A01 T01200083  RH  078%=      5-min Rain = 0
KHA2 251308Z 00015KT 12/08 A2998 RMK A01 T01200083  RH  078%=      5-min Rain = 0
KHA2 251309Z 35017G24KT 12/08 A2999 RMK A01 T01200083  RH  078%=      5-min Rain = 0
KHA2 251310Z 36023KT 12/08 A2998 RMK A01 T01210083  RH  078%=      5-min Rain = 0
KHA2 251311Z 00022KT 12/08 A2998 RMK A01 T01210083  RH  078%=      5-min Rain = 0
KHA2 251312Z 00020KT 12/08 A2998 RMK A01 T01210083  RH  078%=      5-min Rain = 0
KHA2 251313Z 01019KT 12/08 A2998 RMK A01 T01210084  RH  078%=      5-min Rain = 0
KHA2 251314Z 00018KT 12/08 A2998 RMK A01 T01210084  RH  078%=      5-min Rain = 0
KHA2 251315Z 00015KT 12/08 A2998 RMK A01 T01210083  RH  078%=      5-min Rain = 0
KHA2 251316Z 01019KT 12/08 A2998 RMK A01 T01210084  RH  078%=      5-min Rain = 0
KHA2 251317Z 00018KT 12/08 A2998 RMK A01 T01220084  RH  078%=      5-min Rain = 0
KHA2 251318Z 01018KT 12/08 A2998 RMK A01 T01220084  RH  078%=      5-min Rain = 0
KHA2 251319Z 36017KT 12/08 A2998 RMK A01 T01220084  RH  078%=      5-min Rain = 0
KHA2 251320Z 01017KT 12/08 A2998 RMK A01 T01220084  RH  078%=      5-min Rain = 0
KHA2 251321Z 00020KT 12/08 A2998 RMK A01 T01220084  RH  078%=      5-min Rain = 0
KHA2 251322Z 01019KT 12/08 A2998 RMK A01 T01220084  RH  077%=      5-min Rain = 0
KHA2 251323Z 01017KT 12/08 A2998 RMK A01 T01230084  RH  077%=      5-min Rain = 0
KHA2 251324Z 00021KT 12/08 A2998 RMK A01 T01230084  RH  077%=      5-min Rain = 0
KHA2 251325Z 00022KT 12/08 A2998 RMK A01 T01230084  RH  077%=      5-min Rain = 0
KHA2 251326Z 00021KT 12/09 A2998 RMK A01 T01230085  RH  077%=      5-min Rain = 0
KHA2 251327Z 00020KT 12/09 A2998 RMK A01 T01230085  RH  077%=      5-min Rain = 0
KHA2 251328Z 00021KT 12/09 A2998 RMK A01 T01230085  RH  077%=      5-min Rain = 0
KHA2 251329Z 36020KT 12/09 A2998 RMK A01 T01240085  RH  077%=      5-min Rain = 0
KHA2 251330Z 00021KT 12/09 A2998 RMK A01 T01240085  RH  077%=      5-min Rain = 0
KHA2 251331Z 00022KT 13/09 A2998 RMK A01 T01250085  RH  077%=      5-min Rain = 0
KHA2 251332Z 00021KT 13/09 A2998 RMK A01 T01250085  RH  077%=      5-min Rain = 0
KHA2 251333Z 00019G24KT 13/09 A2998 RMK A01 T01260086  RH  076%=      5-min Rain = 0
KHA2 251334Z 00021KT 13/09 A2998 RMK A01 T01270086  RH  076%=      5-min Rain = 0
KHA2 251335Z 36018KT 13/09 A2998 RMK A01 T01270086  RH  076%=      5-min Rain = 0
KHA2 251336Z 00020KT 13/09 A2998 RMK A01 T01270086  RH  076%=      5-min Rain = 0
KHA2 251337Z 36017KT 13/09 A2998 RMK A01 T01280086  RH  076%=      5-min Rain = 0
KHA2 251338Z 36016G21KT 13/09 A2999 RMK A01 T01290087  RH  076%=      5-min Rain = 0
KHA2 251339Z 01019G24KT 13/09 A2998 RMK A01 T01310087  RH  075%=      5-min Rain = 0
KHA2 251340Z 00019KT 13/09 A2998 RMK A01 T01300086  RH  074%=      5-min Rain = 0
KHA2 251341Z 01019KT 13/09 A2998 RMK A01 T01300086  RH  075%=      5-min Rain = 0
KHA2 251342Z 00019KT 13/09 A2998 RMK A01 T01300086  RH  075%=      5-min Rain = 0
KHA2 251343Z 01019KT 13/09 A2998 RMK A01 T01300086  RH  075%=      5-min Rain = 0
KHA2 251344Z 01019KT 13/09 A2998 RMK A01 T01300087  RH  075%=      5-min Rain = 0
KHA2 251345Z 01018KT 13/09 A2999 RMK A01 T01300087  RH  075%=      5-min Rain = 0
KHA2 251346Z 36019KT 13/09 A2999 RMK A01 T01320088  RH  074%=      5-min Rain = 0
KHA2 251347Z 36018KT 13/09 A2999 RMK A01 T01330087  RH  074%=      5-min Rain = 0
KHA2 251348Z 00019KT 13/09 A2999 RMK A01 T01330088  RH  074%=      5-min Rain = 0
KHA2 251349Z 00019KT 13/09 A2999 RMK A01 T01330087  RH  074%=      5-min Rain = 0
KHA2 251350Z 36019KT 13/09 A2999 RMK A01 T01340087  RH  073%=      5-min Rain = 0
KHA2 251351Z 00018KT 13/09 A2999 RMK A01 T01340087  RH  073%=      5-min Rain = 0
KHA2 251352Z 00019KT 13/09 A2999 RMK A01 T01340087  RH  073%=      5-min Rain = 0
KHA2 251353Z 00019G24KT 13/09 A2999 RMK A01 T01340087  RH  073%=      5-min Rain = 0
KHA2 251354Z 36021KT 13/09 A2999 RMK A01 T01340087  RH  073%=      5-min Rain = 0
KHA2 251355Z 35020KT 13/09 A2999 RMK A01 T01340086  RH  073%=      5-min Rain = 0
KHA2 251356Z 00018KT 13/09 A2999 RMK A01 T01340087  RH  073%=      5-min Rain = 0
KHA2 251357Z 00017KT 13/09 A2999 RMK A01 T01340087  RH  073%=      5-min Rain = 0
KHA2 251358Z 36018KT 14/09 A2999 RMK A01 T01360087  RH  072%=      5-min Rain = 0
KHA2 251359Z 36018KT 14/09 A2999 RMK A01 T01360087  RH  072%=      5-min Rain = 0
KHA2 251400Z 36018KT 14/09 A2999 RMK A01 T01360087  RH  072%=      5-min Rain = 0
KHA2 251401Z 35017KT 14/09 A2999 RMK A01 T01360087  RH  072%=      5-min Rain = 0
KHA2 251402Z 36018G23KT 14/09 A2999 RMK A01 T01380087  RH  071%=      5-min Rain = 0
KHA2 251403Z 36022KT 14/09 A2999 RMK A01 T01380086  RH  071%=      5-min Rain = 0
KHA2 251404Z 00021KT 14/09 A2999 RMK A01 T01370085  RH  071%=      5-min Rain = 0
KHA2 251405Z 00023KT 14/09 A2999 RMK A01 T01360086  RH  072%=      5-min Rain = 0
KHA2 251406Z 00022KT 14/09 A2999 RMK A01 T01360086  RH  071%=      5-min Rain = 0
KHA2 251407Z 01021KT 14/09 A2999 RMK A01 T01360085  RH  072%=      5-min Rain = 0
KHA2 251408Z 00020KT 14/09 A30 RMK A01 T01350085  RH  072%=      5-min Rain = 0
KHA2 251409Z 36018G23KT 14/09 A2999 RMK A01 T01360085  RH  071%=      5-min Rain = 0
KHA2 251410Z 00019KT 14/09 A30 RMK A01 T01370086  RH  071%=      5-min Rain = 0
KHA2 251411Z 01020KT 14/09 A2999 RMK A01 T01380085  RH  071%=      5-min Rain = 0
KHA2 251412Z 01020KT 14/09 A2999 RMK A01 T01370085  RH  071%=      5-min Rain = 0
KHA2 251413Z 01021KT 14/09 A2999 RMK A01 T01380086  RH  071%=      5-min Rain = 0
KHA2 251414Z 00017G22KT 14/09 A2999 RMK A01 T01380085  RH  071%=      5-min Rain = 0
KHA2 251415Z 00018KT 14/09 A2999 RMK A01 T01400086  RH  070%=      5-min Rain = 0
KHA2 251416Z 35022G28KT 14/09 A2999 RMK A01 T01410086  RH  070%=      5-min Rain = 0
KHA2 251417Z 00021KT 14/09 A2999 RMK A01 T01400085  RH  070%=      5-min Rain = 0
KHA2 251418Z 36021KT 14/09 A2999 RMK A01 T01390085  RH  070%=      5-min Rain = 0
KHA2 251419Z 00023KT 14/09 A2999 RMK A01 T01390085  RH  070%=      5-min Rain = 0
KHA2 251420Z 36023KT 14/09 A2999 RMK A01 T01400085  RH  069%=      5-min Rain = 0
KHA2 251421Z 36024KT 14/08 A2999 RMK A01 T01390084  RH  069%=      5-min Rain = 0
KHA2 251422Z 35022KT 14/08 A2999 RMK A01 T01390084  RH  070%=      5-min Rain = 0
KHA2 251423Z 35021KT 14/08 A2999 RMK A01 T01390084  RH  070%=      5-min Rain = 0
KHA2 251424Z 36022KT 14/09 A2999 RMK A01 T01400085  RH  069%=      5-min Rain = 0
KHA2 251425Z 00021KT 14/09 A2999 RMK A01 T01410085  RH  069%=      5-min Rain = 0
KHA2 251426Z 36016KT 14/09 A2999 RMK A01 T01430086  RH  068%=      5-min Rain = 0
KHA2 251427Z 35019G24KT 14/09 A2999 RMK A01 T01440086  RH  068%=      5-min Rain = 0
KHA2 251428Z 35021KT 15/09 A2999 RMK A01 T01450085  RH  067%=      5-min Rain = 0
KHA2 251429Z 35021KT 14/09 A2999 RMK A01 T01430085  RH  068%=      5-min Rain = 0
KHA2 251430Z 36021KT 14/09 A2999 RMK A01 T01430085  RH  068%=      5-min Rain = 0
KHA2 251431Z 36023KT 14/08 A2999 RMK A01 T01430084  RH  068%=      5-min Rain = 0
KHA2 251432Z 00021KT 14/08 A2998 RMK A01 T01430084  RH  068%=      5-min Rain = 0
KHA2 251433Z 00023KT 14/08 A2998 RMK A01 T01430084  RH  068%=      5-min Rain = 0
KHA2 251434Z 36022KT 14/08 A2999 RMK A01 T01430084  RH  068%=      5-min Rain = 0
KHA2 251435Z 36019KT 14/09 A2998 RMK A01 T01430085  RH  068%=      5-min Rain = 0
KHA2 251436Z 35022KT 14/08 A2998 RMK A01 T01440084  RH  067%=      5-min Rain = 0
KHA2 251437Z 01020KT 15/08 A2998 RMK A01 T01450084  RH  067%=      5-min Rain = 0
KHA2 251438Z 01022G27KT 15/08 A2998 RMK A01 T01450084  RH  067%=      5-min Rain = 0
KHA2 251439Z 00023KT 14/08 A2998 RMK A01 T01440084  RH  067%=      5-min Rain = 0
KHA2 251440Z 01023KT 15/08 A2998 RMK A01 T01450084  RH  067%=      5-min Rain = 0
KHA2 251441Z 00020G25KT 15/09 A2998 RMK A01 T01450085  RH  067%=      5-min Rain = 0
KHA2 251442Z 01021KT 15/09 A2998 RMK A01 T01470085  RH  066%=      5-min Rain = 0
KHA2 251443Z 00022KT 15/08 A2998 RMK A01 T01470083  RH  066%=      5-min Rain = 0
KHA2 251444Z 35025KT 15/08 A2998 RMK A01 T01450083  RH  066%=      5-min Rain = 0
KHA2 251445Z 35023KT 14/08 A2998 RMK A01 T01430083  RH  067%=      5-min Rain = 0
KHA2 251446Z 36020G27KT 14/08 A2998 RMK A01 T01420083  RH  068%=      5-min Rain = 0
KHA2 251447Z 36021KT 14/08 A2998 RMK A01 T01420083  RH  067%=      5-min Rain = 0
KHA2 251448Z 35022KT 14/08 A2998 RMK A01 T01430083  RH  067%=      5-min Rain = 0
KHA2 251449Z 00022KT 14/08 A2999 RMK A01 T01440083  RH  067%=      5-min Rain = 0
KHA2 251450Z 36024KT 14/08 A2999 RMK A01 T01430082  RH  067%=      5-min Rain = 0
KHA2 251451Z 35024KT 14/08 A2999 RMK A01 T01420082  RH  067%=      5-min Rain = 0
KHA2 251452Z 35024KT 14/08 A2999 RMK A01 T01400081  RH  068%=      5-min Rain = 0
KHA2 251453Z 35022KT 14/08 A2999 RMK A01 T01390081  RH  068%=      5-min Rain = 0
KHA2 251454Z 35023KT 14/08 A2999 RMK A01 T01400082  RH  068%=      5-min Rain = 0
KHA2 251455Z 35022KT 14/08 A2999 RMK A01 T01400082  RH  068%=      5-min Rain = 0
KHA2 251456Z 00020KT 14/08 A2999 RMK A01 T01410082  RH  068%=      5-min Rain = 0
KHA2 251457Z 01020KT 14/08 A2999 RMK A01 T01420082  RH  067%=      5-min Rain = 0
KHA2 251458Z 01022G27KT 14/08 A2999 RMK A01 T01430083  RH  067%=      5-min Rain = 0
KHA2 251459Z 01021KT 14/08 A2999 RMK A01 T01430082  RH  067%=      5-min Rain = 0
KHA2 251500Z 01021G26KT 14/08 A2999 RMK A01 T01430082  RH  067%=      5-min Rain = 0
KHA2 251501Z 00018G24KT 14/08 A2999 RMK A01 T01420083  RH  067%=      5-min Rain = 0
KHA2 251502Z 00018KT 14/08 A2999 RMK A01 T01440084  RH  067%=      5-min Rain = 0
KHA2 251503Z 01022G30KT 15/08 A2999 RMK A01 T01450083  RH  066%=      5-min Rain = 0
KHA2 251504Z 01026KT 14/08 A2999 RMK A01 T01440082  RH  066%=      5-min Rain = 0
KHA2 251505Z 00024KT 14/08 A2999 RMK A01 T01410081  RH  067%=      5-min Rain = 0
KHA2 251506Z 01021KT 14/08 A2999 RMK A01 T01400081  RH  068%=      5-min Rain = 0
KHA2 251507Z 01023KT 14/08 A2999 RMK A01 T01400082  RH  068%=      5-min Rain = 0
KHA2 251508Z 00021G26KT 14/08 A2999 RMK A01 T01410082  RH  068%=      5-min Rain = 0
KHA2 251509Z 00025KT 14/08 A2999 RMK A01 T01420082  RH  067%=      5-min Rain = 0
KHA2 251510Z 36023G29KT 14/08 A2999 RMK A01 T01410082  RH  068%=      5-min Rain = 0
KHA2 251511Z 00024KT 14/08 A2999 RMK A01 T01410082  RH  068%=      5-min Rain = 0
KHA2 251512Z 01023KT 14/08 A2999 RMK A01 T01410082  RH  068%=      5-min Rain = 0
KHA2 251513Z 01023KT 14/08 A2999 RMK A01 T01410082  RH  068%=      5-min Rain = 0
KHA2 251514Z 01023KT 14/08 A2999 RMK A01 T01410083  RH  068%=      5-min Rain = 0
KHA2 251515Z 01021G26KT 14/08 A2999 RMK A01 T01420083  RH  068%=      5-min Rain = 0
KHA2 251516Z 00023KT 14/08 A2999 RMK A01 T01420082  RH  067%=      5-min Rain = 0
KHA2 251517Z 00021KT 14/08 A2999 RMK A01 T01420082  RH  067%=      5-min Rain = 0
KHA2 251518Z 00022G27KT 14/08 A2999 RMK A01 T01410082  RH  068%=      5-min Rain = 0
KHA2 251519Z 01023KT 14/08 A2999 RMK A01 T01410082  RH  068%=      5-min Rain = 0
KHA2 251520Z 01021KT 14/08 A2999 RMK A01 T01410082  RH  068%=      5-min Rain = 0
KHA2 251521Z 00021G27KT 14/08 A2999 RMK A01 T01410083  RH  068%=      5-min Rain = 0
KHA2 251522Z 36018KT 14/08 A30 RMK A01 T01420083  RH  068%=      5-min Rain = 0
KHA2 251523Z 36018G23KT 14/08 A30 RMK A01 T01440084  RH  067%=      5-min Rain = 0
KHA2 251524Z 00018KT 15/08 A30 RMK A01 T01450083  RH  067%=      5-min Rain = 0
KHA2 251525Z 00020KT 15/08 A30 RMK A01 T01450083  RH  067%=      5-min Rain = 0
KHA2 251526Z 36021G26KT 14/08 A30 RMK A01 T01440083  RH  067%=      5-min Rain = 0
KHA2 251527Z 35023KT 14/08 A30 RMK A01 T01420082  RH  067%=      5-min Rain = 0
KHA2 251528Z 36023KT 14/08 A30 RMK A01 T01410082  RH  067%=      5-min Rain = 0
KHA2 251529Z 36023KT 14/08 A30 RMK A01 T01400082  RH  068%=      5-min Rain = 0
KHA2 251530Z 35024KT 14/08 A30 RMK A01 T01400082  RH  068%=      5-min Rain = 0
KHA2 251531Z 00023KT 14/08 A30 RMK A01 T01390082  RH  068%=      5-min Rain = 0
KHA2 251532Z 36021KT 14/08 A30 RMK A01 T01390083  RH  069%=      5-min Rain = 0
KHA2 251533Z 36022KT 14/08 A30 RMK A01 T01400083  RH  068%=      5-min Rain = 0
KHA2 251534Z 36023KT 14/08 A30 RMK A01 T01420083  RH  068%=      5-min Rain = 0
KHA2 251535Z 36022KT 14/08 A30 RMK A01 T01420083  RH  068%=      5-min Rain = 0
KHA2 251536Z 00022KT 14/08 A30 RMK A01 T01410083  RH  068%=      5-min Rain = 0
KHA2 251537Z 00024KT 14/08 A30 RMK A01 T01410083  RH  068%=      5-min Rain = 0
KHA2 251538Z 00025KT 14/08 A30 RMK A01 T01410083  RH  068%=      5-min Rain = 0
KHA2 251539Z 00023KT 14/08 A30 RMK A01 T01400083  RH  068%=      5-min Rain = 0
KHA2 251540Z 00021KT 14/08 A30 RMK A01 T01410084  RH  068%=      5-min Rain = 0
KHA2 251541Z 00021KT 14/08 A30 RMK A01 T01420084  RH  068%=      5-min Rain = 0
KHA2 251542Z 00021KT 14/08 A30 RMK A01 T01430084  RH  067%=      5-min Rain = 0
KHA2 251543Z 36021KT 14/08 A30 RMK A01 T01430083  RH  067%=      5-min Rain = 0
KHA2 251544Z 00023KT 14/08 A30 RMK A01 T01420083  RH  068%=      5-min Rain = 0
KHA2 251545Z 00021KT 14/08 A30 RMK A01 T01420083  RH  068%=      5-min Rain = 0
KHA2 251546Z 35022KT 14/08 A30 RMK A01 T01420084  RH  068%=      5-min Rain = 0
KHA2 251547Z 36021KT 14/08 A30 RMK A01 T01430084  RH  068%=      5-min Rain = 0
KHA2 251548Z 36020KT 14/08 A30 RMK A01 T01440084  RH  067%=      5-min Rain = 0
KHA2 251549Z 36022G27KT 15/09 A30 RMK A01 T01460085  RH  067%=      5-min Rain = 0
KHA2 251550Z 35022G27KT 15/08 A30 RMK A01 T01470084  RH  066%=      5-min Rain = 0
KHA2 251551Z 01022KT 15/09 A30 RMK A01 T01460085  RH  067%=      5-min Rain = 0
KHA2 251552Z 01024KT 15/09 A30 RMK A01 T01480085  RH  066%=      5-min Rain = 0
KHA2 251553Z 36022KT 15/08 A30 RMK A01 T01470084  RH  066%=      5-min Rain = 0
KHA2 251554Z 01020G28KT 15/09 A30 RMK A01 T01470085  RH  066%=      5-min Rain = 0
KHA2 251555Z 01022KT 15/09 A30 RMK A01 T01480086  RH  066%=      5-min Rain = 0
KHA2 251556Z 01021KT 15/09 A30 RMK A01 T01510087  RH  065%=      5-min Rain = 0
KHA2 251557Z 01022KT 15/09 A30 RMK A01 T01520086  RH  065%=      5-min Rain = 0
KHA2 251558Z 01023G29KT 15/09 A30 RMK A01 T01540087  RH  064%=      5-min Rain = 0
KHA2 251559Z 01025KT 15/09 A30 RMK A01 T01540086  RH  064%=      5-min Rain = 0
KHA2 251600Z 00023KT 15/08 A30 RMK A01 T01510084  RH  064%=      5-min Rain = 0
KHA2 251601Z 00024KT 15/09 A30 RMK A01 T01510085  RH  065%=      5-min Rain = 0
KHA2 251602Z 36021G26KT 15/09 A30 RMK A01 T01520086  RH  065%=      5-min Rain = 0
KHA2 251603Z 00026KT 16/09 A30 RMK A01 T01550086  RH  063%=      5-min Rain = 0
KHA2 251604Z 00025KT 15/08 A30 RMK A01 T01540084  RH  063%=      5-min Rain = 0
KHA2 251605Z 01024KT 15/09 A30 RMK A01 T01530085  RH  064%=      5-min Rain = 0
KHA2 251606Z 00022KT 15/08 A30 RMK A01 T01530084  RH  064%=      5-min Rain = 0
KHA2 251607Z 01022KT 15/09 A30 RMK A01 T01530085  RH  064%=      5-min Rain = 0
KHA2 251608Z 00023KT 16/09 A30 RMK A01 T01550085  RH  063%=      5-min Rain = 0
KHA2 251609Z 36020KT 16/09 A30 RMK A01 T01560086  RH  063%=      5-min Rain = 0
KHA2 251610Z 00021G27KT 16/09 A30 RMK A01 T01590088  RH  063%=      5-min Rain = 0
KHA2 251611Z 00025KT 16/09 A30 RMK A01 T01600086  RH  062%=      5-min Rain = 0
KHA2 251612Z 00025KT 16/08 A30 RMK A01 T01560084  RH  062%=      5-min Rain = 0
KHA2 251613Z 00026KT 16/09 A30 RMK A01 T01560085  RH  063%=      5-min Rain = 0
KHA2 251614Z 01025KT 16/09 A30 RMK A01 T01560085  RH  062%=      5-min Rain = 0
KHA2 251615Z 02023KT 16/09 A30 RMK A01 T01560085  RH  063%=      5-min Rain = 0
KHA2 251616Z 00023G28KT 16/09 A30 RMK A01 T01550085  RH  063%=      5-min Rain = 0
KHA2 251617Z 02018G23KT 16/09 A30 RMK A01 T01550085  RH  063%=      5-min Rain = 0
KHA2 251618Z 02021KT 16/09 A30 RMK A01 T01590088  RH  063%=      5-min Rain = 0
KHA2 251619Z 02022KT 16/09 A30 RMK A01 T01580087  RH  062%=      5-min Rain = 0
KHA2 251620Z 01019G24KT 16/09 A30 RMK A01 T01570086  RH  063%=      5-min Rain = 0
KHA2 251621Z 01022KT 16/09 A30 RMK A01 T01590087  RH  062%=      5-min Rain = 0
KHA2 251622Z 01026KT 16/09 A30 RMK A01 T01590086  RH  062%=      5-min Rain = 0
KHA2 251623Z 36023KT 16/09 A3001 RMK A01 T01560085  RH  062%=      5-min Rain = 0
KHA2 251624Z 00021G26KT 16/09 A30 RMK A01 T01560085  RH  062%=      5-min Rain = 0
KHA2 251625Z 01023G28KT 16/09 A30 RMK A01 T01560085  RH  063%=      5-min Rain = 0
KHA2 251626Z 01021KT 16/09 A30 RMK A01 T01560085  RH  063%=      5-min Rain = 0
KHA2 251627Z 01024KT 16/09 A3001 RMK A01 T01570087  RH  063%=      5-min Rain = 0
KHA2 251628Z 01020G25KT 16/09 A3001 RMK A01 T01590087  RH  062%=      5-min Rain = 0
KHA2 251629Z 01021G26KT 16/09 A3001 RMK A01 T01610088  RH  062%=      5-min Rain = 0
KHA2 251630Z 01018KT 16/09 A3001 RMK A01 T01620088  RH  062%=      5-min Rain = 0
KHA2 251631Z 01021KT 17/09 A3001 RMK A01 T01650089  RH  061%=      5-min Rain = 0
KHA2 251632Z 01019KT 17/09 A3001 RMK A01 T01650088  RH  060%=      5-min Rain = 0
KHA2 251633Z 00022KT 17/09 A3001 RMK A01 T01680090  RH  060%=      5-min Rain = 0
KHA2 251634Z 01023KT 17/09 A3001 RMK A01 T01690088  RH  059%=      5-min Rain = 0
KHA2 251635Z 01019KT 17/09 A3001 RMK A01 T01670087  RH  059%=      5-min Rain = 0
KHA2 251636Z 02023KT 17/09 A3001 RMK A01 T01680090  RH  060%=      5-min Rain = 0
KHA2 251637Z 02018G23KT 17/09 A3001 RMK A01 T01680091  RH  060%=      5-min Rain = 0
KHA2 251638Z 01022G27KT 17/09 A3001 RMK A01 T01740093  RH  059%=      5-min Rain = 0
KHA2 251639Z 02022G28KT 18/09 A3001 RMK A01 T01750091  RH  058%=      5-min Rain = 0
KHA2 251640Z 01024KT 17/09 A3001 RMK A01 T01710089  RH  058%=      5-min Rain = 0
KHA2 251641Z 02022KT 17/09 A3001 RMK A01 T01680089  RH  060%=      5-min Rain = 0
KHA2 251642Z 03024G29KT 17/09 A3001 RMK A01 T01670089  RH  060%=      5-min Rain = 0
KHA2 251643Z 02023KT 17/09 A3001 RMK A01 T01670089  RH  060%=      5-min Rain = 0
KHA2 251644Z 02025G30KT 17/09 A3001 RMK A01 T01670089  RH  060%=      5-min Rain = 0
KHA2 251645Z 02023G28KT 16/09 A3001 RMK A01 T01640088  RH  061%=      5-min Rain = 0
KHA2 251646Z 02024KT 16/09 A3001 RMK A01 T01640088  RH  061%=      5-min Rain = 0
KHA2 251647Z 01023KT 16/09 A3001 RMK A01 T01630088  RH  061%=      5-min Rain = 0
KHA2 251648Z 01023G28KT 16/09 A3001 RMK A01 T01630087  RH  061%=      5-min Rain = 0
KHA2 251649Z 01025KT 16/09 A3001 RMK A01 T01630087  RH  061%=      5-min Rain = 0
KHA2 251650Z 00024KT 16/09 A3001 RMK A01 T01630087  RH  061%=      5-min Rain = 0
KHA2 251651Z 01022KT 16/09 A3001 RMK A01 T01610087  RH  061%=      5-min Rain = 0
KHA2 251652Z 01022KT 16/09 A3001 RMK A01 T01620087  RH  061%=      5-min Rain = 0
KHA2 251653Z 01020G25KT 16/09 A3001 RMK A01 T01630088  RH  061%=      5-min Rain = 0
KHA2 251654Z 01023KT 17/09 A3001 RMK A01 T01650089  RH  061%=      5-min Rain = 0
KHA2 251655Z 02022G28KT 17/09 A3001 RMK A01 T01660089  RH  060%=      5-min Rain = 0
KHA2 251656Z 02022G28KT 17/09 A3002 RMK A01 T01660089  RH  060%=      5-min Rain = 0
KHA2 251657Z 02022KT 17/09 A3002 RMK A01 T01650089  RH  061%=      5-min Rain = 0
KHA2 251658Z 01023KT 16/09 A3001 RMK A01 T01640088  RH  061%=      5-min Rain = 0
KHA2 251659Z 01022KT 17/09 A3001 RMK A01 T01650088  RH  060%=      5-min Rain = 0
KHA2 251700Z 00022KT 17/09 A3001 RMK A01 T01660088  RH  060%=      5-min Rain = 0
KHA2 251701Z 01021KT 17/09 A3001 RMK A01 T01660089  RH  060%=      5-min Rain = 0
KHA2 251702Z 01019KT 17/09 A3001 RMK A01 T01660088  RH  060%=      5-min Rain = 0
KHA2 251703Z 01018KT 17/09 A3001 RMK A01 T01680090  RH  060%=      5-min Rain = 0
KHA2 251704Z 02019KT 17/09 A3001 RMK A01 T01730092  RH  059%=      5-min Rain = 0
KHA2 251705Z 02019KT 17/09 A3001 RMK A01 T01730092  RH  059%=      5-min Rain = 0
KHA2 251706Z 02021KT 17/09 A3001 RMK A01 T01730092  RH  059%=      5-min Rain = 0
KHA2 251707Z 01018G25KT 17/09 A3001 RMK A01 T01720091  RH  059%=      5-min Rain = 0
KHA2 251708Z 02023G28KT 17/09 A3001 RMK A01 T01720092  RH  059%=      5-min Rain = 0
KHA2 251709Z 02024G29KT 17/09 A3001 RMK A01 T01680089  RH  059%=      5-min Rain = 0
KHA2 251710Z 02019KT 16/09 A3001 RMK A01 T01640090  RH  061%=      5-min Rain = 0
KHA2 251711Z 02023KT 17/09 A3001 RMK A01 T01660092  RH  061%=      5-min Rain = 0
KHA2 251712Z 01021KT 17/09 A3001 RMK A01 T01680091  RH  060%=      5-min Rain = 0
KHA2 251713Z 02019KT 17/09 A3001 RMK A01 T01700091  RH  060%=      5-min Rain = 0
KHA2 251714Z 02019G26KT 17/09 A3001 RMK A01 T01710093  RH  060%=      5-min Rain = 0
KHA2 251715Z 01022G27KT 17/09 A3001 RMK A01 T01730092  RH  059%=      5-min Rain = 0
KHA2 251716Z 01019KT 17/09 A3001 RMK A01 T01720090  RH  059%=      5-min Rain = 0
KHA2 251717Z 00020G27KT 17/09 A3001 RMK A01 T01720091  RH  059%=      5-min Rain = 0
KHA2 251718Z 01022KT 17/09 A3001 RMK A01 T01720089  RH  058%=      5-min Rain = 0
KHA2 251719Z 01024KT 17/09 A3001 RMK A01 T01690090  RH  059%=      5-min Rain = 0
KHA2 251720Z 02023KT 17/09 A3001 RMK A01 T01690091  RH  060%=      5-min Rain = 0
KHA2 251721Z 02024KT 17/09 A3001 RMK A01 T01670091  RH  061%=      5-min Rain = 0
KHA2 251722Z 02022KT 17/09 A3001 RMK A01 T01660092  RH  061%=      5-min Rain = 0
KHA2 251723Z 02023KT 17/09 A3001 RMK A01 T01680092  RH  061%=      5-min Rain = 0
KHA2 251724Z 02020G26KT 17/09 A3001 RMK A01 T01710093  RH  060%=      5-min Rain = 0
KHA2 251725Z 03023KT 17/09 A3001 RMK A01 T01730092  RH  059%=      5-min Rain = 0
KHA2 251726Z 03024KT 17/09 A3001 RMK A01 T01700092  RH  060%=      5-min Rain = 0
KHA2 251727Z 02025KT 17/09 A3001 RMK A01 T01690092  RH  060%=      5-min Rain = 0
KHA2 251728Z 02023KT 17/09 A3001 RMK A01 T01680091  RH  060%=      5-min Rain = 0
KHA2 251729Z 02025G30KT 17/09 A3001 RMK A01 T01670091  RH  061%=      5-min Rain = 0
KHA2 251730Z 02023KT 17/09 A3001 RMK A01 T01680092  RH  061%=      5-min Rain = 0
KHA2 251731Z 02023KT 17/09 A3001 RMK A01 T01690092  RH  060%=      5-min Rain = 0
KHA2 251732Z 00023KT 17/09 A3001 RMK A01 T01700092  RH  060%=      5-min Rain = 0
KHA2 251733Z 01023KT 17/09 A3001 RMK A01 T01740094  RH  059%=      5-min Rain = 0
KHA2 251734Z 01020KT 18/09 A3001 RMK A01 T01770093  RH  058%=      5-min Rain = 0
KHA2 251735Z 02021KT 18/09 A3001 RMK A01 T01790094  RH  058%=      5-min Rain = 0
KHA2 251736Z 02021KT 18/09 A3001 RMK A01 T01790094  RH  057%=      5-min Rain = 0
KHA2 251737Z 01023KT 18/09 A3001 RMK A01 T01800093  RH  057%=      5-min Rain = 0
KHA2 251738Z 02022G27KT 17/09 A3001 RMK A01 T01740089  RH  057%=      5-min Rain = 0
KHA2 251739Z 03024G29KT 17/09 A3001 RMK A01 T01710092  RH  059%=      5-min Rain = 0
KHA2 251740Z 02023G28KT 18/09 A3001 RMK A01 T01750093  RH  059%=      5-min Rain = 0
KHA2 251741Z 02024KT 18/09 A3001 RMK A01 T01750092  RH  058%=      5-min Rain = 0
KHA2 251742Z 01022KT 17/09 A3001 RMK A01 T01740092  RH  059%=      5-min Rain = 0
KHA2 251743Z 01019G25KT 18/09 A3001 RMK A01 T01760093  RH  058%=      5-min Rain = 0
KHA2 251744Z 01022KT 18/09 A3001 RMK A01 T01770093  RH  058%=      5-min Rain = 0
KHA2 251745Z 02020KT 18/09 A3001 RMK A01 T01770093  RH  058%=      5-min Rain = 0
KHA2 251746Z 01023G29KT 18/09 A3001 RMK A01 T01760092  RH  058%=      5-min Rain = 0
KHA2 251747Z 01021KT 18/09 A3001 RMK A01 T01750092  RH  058%=      5-min Rain = 0
KHA2 251748Z 00023KT 18/09 A3001 RMK A01 T01770093  RH  058%=      5-min Rain = 0
KHA2 251749Z 01020KT 18/09 A3001 RMK A01 T01770092  RH  057%=      5-min Rain = 0
KHA2 251750Z 02023KT 18/09 A3001 RMK A01 T01790094  RH  058%=      5-min Rain = 0
KHA2 251751Z 01023KT 18/09 A3001 RMK A01 T01800094  RH  057%=      5-min Rain = 0
KHA2 251752Z 01022KT 18/09 A3001 RMK A01 T01790092  RH  057%=      5-min Rain = 0
KHA2 251753Z 36023G28KT 18/09 A3001 RMK A01 T01790092  RH  057%=      5-min Rain = 0
KHA2 251754Z 00023KT 18/09 A3001 RMK A01 T01810092  RH  056%=      5-min Rain = 0
KHA2 251755Z 01020KT 18/09 A3001 RMK A01 T01790091  RH  057%=      5-min Rain = 0
KHA2 251756Z 02019KT 18/10 A3001 RMK A01 T01800095  RH  057%=      5-min Rain = 0
KHA2 251757Z 03020KT 19/10 A3001 RMK A01 T01870097  RH  056%=      5-min Rain = 0
KHA2 251758Z 03021KT 19/09 A3001 RMK A01 T01850094  RH  056%=      5-min Rain = 0
KHA2 251759Z 02017G24KT 18/10 A3001 RMK A01 T01820096  RH  057%=      5-min Rain = 0
KHA2 251800Z 02019KT 19/10 A3001 RMK A01 T01850096  RH  056%=      5-min Rain = 0
KHA2 251801Z 02020G25KT 19/10 A3001 RMK A01 T01880096  RH  055%=      5-min Rain = 0
KHA2 251802Z 03020KT 19/10 A3001 RMK A01 T01860096  RH  056%=      5-min Rain = 0
KHA2 251803Z 04023G28KT 18/09 A3001 RMK A01 T01840094  RH  056%=      5-min Rain = 0
KHA2 251804Z 02020G26KT 18/10 A3001 RMK A01 T01810095  RH  057%=      5-min Rain = 0
KHA2 251805Z 02022G27KT 18/10 A3002 RMK A01 T01840096  RH  056%=      5-min Rain = 0
KHA2 251806Z 02020KT 18/09 A3002 RMK A01 T01810093  RH  056%=      5-min Rain = 0
KHA2 251807Z 03022KT 18/09 A3001 RMK A01 T01770094  RH  058%=      5-min Rain = 0
KHA2 251808Z 03021KT 18/09 A3001 RMK A01 T01760093  RH  058%=      5-min Rain = 0
KHA2 251809Z 01021KT 18/09 A3002 RMK A01 T01760094  RH  059%=      5-min Rain = 0
KHA2 251810Z 01021G27KT 18/09 A3001 RMK A01 T01780093  RH  058%=      5-min Rain = 0
KHA2 251811Z 02022G28KT 18/09 A3002 RMK A01 T01770093  RH  058%=      5-min Rain = 0
KHA2 251812Z 01021KT 18/09 A3002 RMK A01 T01760094  RH  058%=      5-min Rain = 0
KHA2 251813Z 01018KT 18/09 A3002 RMK A01 T01750093  RH  058%=      5-min Rain = 0
KHA2 251814Z 02017G22KT 17/09 A3002 RMK A01 T01730094  RH  060%=      5-min Rain = 0
KHA2 251815Z 02019KT 17/09 A3002 RMK A01 T01740094  RH  059%=      5-min Rain = 0
KHA2 251816Z 01023KT 17/09 A3002 RMK A01 T01740094  RH  059%=      5-min Rain = 0
KHA2 251817Z 02021KT 17/09 A3002 RMK A01 T01740094  RH  059%=      5-min Rain = 0
KHA2 251818Z 02020KT 18/10 A3001 RMK A01 T01750095  RH  059%=      5-min Rain = 0
KHA2 251819Z 02016KT 17/10 A3002 RMK A01 T01740095  RH  059%=      5-min Rain = 0
KHA2 251820Z 00018KT 17/10 A3002 RMK A01 T01740095  RH  060%=      5-min Rain = 0
KHA2 251821Z 36021KT 18/10 A3001 RMK A01 T01770095  RH  058%=      5-min Rain = 0
KHA2 251822Z 00020KT 18/09 A3001 RMK A01 T01780094  RH  058%=      5-min Rain = 0
KHA2 251823Z 02021G26KT 18/10 A3001 RMK A01 T01770095  RH  058%=      5-min Rain = 0
KHA2 251824Z 02020KT 18/10 A3001 RMK A01 T01780095  RH  058%=      5-min Rain = 0
KHA2 251825Z 03018G23KT 18/10 A3002 RMK A01 T01770096  RH  059%=      5-min Rain = 0
KHA2 251826Z 02019KT 18/10 A3001 RMK A01 T01770095  RH  059%=      5-min Rain = 0
KHA2 251827Z 02018KT 18/10 A3001 RMK A01 T01780096  RH  059%=      5-min Rain = 0
KHA2 251828Z 03020G29KT 18/10 A3001 RMK A01 T01800098  RH  059%=      5-min Rain = 0
KHA2 251829Z 02022KT 18/10 A3001 RMK A01 T01820095  RH  057%=      5-min Rain = 0
KHA2 251830Z 02020KT 18/10 A3001 RMK A01 T01800095  RH  058%=      5-min Rain = 0
KHA2 251831Z 02020G25KT 18/10 A3001 RMK A01 T01800096  RH  058%=      5-min Rain = 0
KHA2 251832Z 03021KT 18/10 A3001 RMK A01 T01820096  RH  057%=      5-min Rain = 0
KHA2 251833Z 02019KT 18/10 A3001 RMK A01 T01830096  RH  057%=      5-min Rain = 0
KHA2 251834Z 03018G24KT 19/10 A3001 RMK A01 T01850099  RH  057%=      5-min Rain = 0
KHA2 251835Z 03022G27KT 19/10 A3001 RMK A01 T01850096  RH  056%=      5-min Rain = 0
KHA2 251836Z 02018KT 18/10 A3001 RMK A01 T01840097  RH  057%=      5-min Rain = 0
KHA2 251837Z 02021G27KT 19/10 A3001 RMK A01 T01850098  RH  057%=      5-min Rain = 0
KHA2 251838Z 02020KT 19/10 A3001 RMK A01 T01880097  RH  055%=      5-min Rain = 0
KHA2 251839Z 02018G23KT 19/10 A3002 RMK A01 T01860096  RH  056%=      5-min Rain = 0
KHA2 251840Z 02022KT 19/10 A3002 RMK A01 T01870098  RH  056%=      5-min Rain = 0
KHA2 251841Z 01017KT 19/10 A3002 RMK A01 T01860096  RH  056%=      5-min Rain = 0
KHA2 251842Z 35018KT 19/10 A3002 RMK A01 T01870097  RH  056%=      5-min Rain = 0
KHA2 251843Z 36019KT 19/10 A3002 RMK A01 T01900096  RH  055%=      5-min Rain = 0
KHA2 251844Z 01020KT 19/10 A3001 RMK A01 T01920096  RH  054%=      5-min Rain = 0
KHA2 251845Z 01018G23KT 19/10 A3002 RMK A01 T01910096  RH  054%=      5-min Rain = 0
KHA2 251846Z 01019KT 19/10 A3002 RMK A01 T01910096  RH  054%=      5-min Rain = 0
KHA2 251847Z 01019KT 19/10 A3002 RMK A01 T01910095  RH  054%=      5-min Rain = 0
KHA2 251848Z 01015G20KT 19/10 A3002 RMK A01 T01900097  RH  055%=      5-min Rain = 0
KHA2 251849Z 01021KT 19/10 A3002 RMK A01 T01930096  RH  053%=      5-min Rain = 0
KHA2 251850Z 01016KT 19/09 A3002 RMK A01 T01880094  RH  054%=      5-min Rain = 0
KHA2 251851Z 00021G26KT 18/09 A3001 RMK A01 T01830094  RH  056%=      5-min Rain = 0
KHA2 251852Z 35021KT 18/09 A3001 RMK A01 T01810093  RH  056%=      5-min Rain = 0
KHA2 251853Z 36020KT 18/09 A3001 RMK A01 T01810093  RH  056%=      5-min Rain = 0
KHA2 251854Z 35019KT 18/09 A3001 RMK A01 T01820093  RH  056%=      5-min Rain = 0
KHA2 251855Z 36018KT 18/09 A3001 RMK A01 T01830094  RH  056%=      5-min Rain = 0
KHA2 251856Z 01017KT 19/10 A3001 RMK A01 T01870097  RH  056%=      5-min Rain = 0
KHA2 251857Z 00015KT 19/10 A3002 RMK A01 T01900097  RH  055%=      5-min Rain = 0
KHA2 251858Z 02015G20KT 19/10 A3002 RMK A01 T01880095  RH  055%=      5-min Rain = 0
KHA2 251859Z 03018KT 19/10 A3001 RMK A01 T01880097  RH  055%=      5-min Rain = 0
KHA2 251900Z 01021KT 19/10 A3002 RMK A01 T01880098  RH  056%=      5-min Rain = 0
KHA2 251901Z 01020KT 19/10 A3002 RMK A01 T01900096  RH  054%=      5-min Rain = 0
KHA2 251902Z 01017KT 19/10 A3002 RMK A01 T01890097  RH  055%=      5-min Rain = 0
KHA2 251903Z 00019G26KT 19/10 A3002 RMK A01 T01930097  RH  054%=      5-min Rain = 0
KHA2 251904Z 01017KT 19/10 A3002 RMK A01 T01920095  RH  053%=      5-min Rain = 0
KHA2 251905Z 01019KT 19/10 A3002 RMK A01 T01940097  RH  054%=      5-min Rain = 0
KHA2 251906Z 01015G22KT 19/10 A3002 RMK A01 T01920095  RH  053%=      5-min Rain = 0
KHA2 251907Z 01020KT 19/10 A3001 RMK A01 T01930097  RH  054%=      5-min Rain = 0
KHA2 251908Z 01021KT 19/10 A3001 RMK A01 T01940095  RH  053%=      5-min Rain = 0
KHA2 251909Z 00018G23KT 19/09 A3001 RMK A01 T01920094  RH  053%=      5-min Rain = 0
KHA2 251910Z 01019KT 19/10 A3001 RMK A01 T01910095  RH  054%=      5-min Rain = 0
KHA2 251911Z 00019KT 19/10 A3001 RMK A01 T01910095  RH  054%=      5-min Rain = 0
KHA2 251912Z 36018KT 19/10 A3001 RMK A01 T01910095  RH  054%=      5-min Rain = 0
KHA2 251913Z 01016G21KT 19/10 A3001 RMK A01 T01930095  RH  053%=      5-min Rain = 0
KHA2 251914Z 01019KT 19/09 A3001 RMK A01 T01890093  RH  054%=      5-min Rain = 0
KHA2 251915Z 00019KT 19/10 A3001 RMK A01 T01900095  RH  054%=      5-min Rain = 0
KHA2 251916Z 35020KT 19/09 A3001 RMK A01 T01930093  RH  052%=      5-min Rain = 0
KHA2 251917Z 00017KT 19/09 A3001 RMK A01 T01920094  RH  053%=      5-min Rain = 0
KHA2 251918Z 01018G24KT 20/10 A3001 RMK A01 T01950095  RH  052%=      5-min Rain = 0
KHA2 251919Z 02019KT 19/09 A3001 RMK A01 T01920093  RH  053%=      5-min Rain = 0
KHA2 251920Z 01017G22KT 19/09 A3001 RMK A01 T01890094  RH  054%=      5-min Rain = 0
KHA2 251921Z 35020KT 19/09 A3001 RMK A01 T01910094  RH  053%=      5-min Rain = 0
KHA2 251922Z 36020KT 19/09 A3001 RMK A01 T01920093  RH  053%=      5-min Rain = 0
KHA2 251923Z 36017G22KT 19/09 A3001 RMK A01 T01910093  RH  053%=      5-min Rain = 0
KHA2 251924Z 35015G23KT 19/10 A3001 RMK A01 T01910095  RH  054%=      5-min Rain = 0
KHA2 251925Z 01021KT 19/09 A3001 RMK A01 T01930094  RH  053%=      5-min Rain = 0
KHA2 251926Z 01017G22KT 19/10 A3001 RMK A01 T01940095  RH  053%=      5-min Rain = 0
KHA2 251927Z 01017G24KT 19/09 A3001 RMK A01 T01910094  RH  053%=      5-min Rain = 0
KHA2 251928Z 01021KT 19/09 A3001 RMK A01 T01900094  RH  054%=      5-min Rain = 0
KHA2 251929Z 01017G22KT 19/10 A3001 RMK A01 T01920095  RH  053%=      5-min Rain = 0
KHA2 251930Z 01015KT 19/09 A3001 RMK A01 T01900094  RH  054%=      5-min Rain = 0
KHA2 251931Z 01017G22KT 19/10 A3001 RMK A01 T01930096  RH  053%=      5-min Rain = 0
KHA2 251932Z 36020G25KT 19/09 A3001 RMK A01 T01940094  RH  052%=      5-min Rain = 0
KHA2 251933Z 01019KT 19/09 A3001 RMK A01 T01920093  RH  053%=      5-min Rain = 0
KHA2 251934Z 02018KT 19/09 A3001 RMK A01 T01920092  RH  052%=      5-min Rain = 0
KHA2 251935Z 01015KT 19/09 A3001 RMK A01 T01890093  RH  054%=      5-min Rain = 0
KHA2 251936Z 36015KT 19/10 A3001 RMK A01 T01940096  RH  053%=      5-min Rain = 0
KHA2 251937Z 36015KT 20/09 A3001 RMK A01 T01950094  RH  052%=      5-min Rain = 0
KHA2 251938Z 01019KT 19/09 A3001 RMK A01 T01940094  RH  052%=      5-min Rain = 0
KHA2 251939Z 01019KT 19/09 A3001 RMK A01 T01930092  RH  052%=      5-min Rain = 0
KHA2 251940Z 02017KT 19/10 A3001 RMK A01 T01920095  RH  053%=      5-min Rain = 0
KHA2 251941Z 02011KT 19/09 A3001 RMK A01 T01910093  RH  053%=      5-min Rain = 0
KHA2 251942Z 00017G27KT 19/09 A3001 RMK A01 T01880094  RH  054%=      5-min Rain = 0
KHA2 251943Z 36016KT 19/09 A3001 RMK A01 T01910093  RH  053%=      5-min Rain = 0
KHA2 251944Z 01019KT 19/09 A3001 RMK A01 T01910094  RH  053%=      5-min Rain = 0
KHA2 251945Z 00018KT 19/09 A3001 RMK A01 T01930094  RH  053%=      5-min Rain = 0
KHA2 251946Z 35020KT 20/09 A3001 RMK A01 T01960094  RH  052%=      5-min Rain = 0
KHA2 251947Z 00020KT 20/09 A3001 RMK A01 T01950092  RH  051%=      5-min Rain = 0
KHA2 251948Z 35016KT 19/09 A3001 RMK A01 T01890091  RH  053%=      5-min Rain = 0
KHA2 251949Z 34017KT 19/09 A3001 RMK A01 T01890092  RH  053%=      5-min Rain = 0
KHA2 251950Z 36020KT 19/09 A3001 RMK A01 T01910093  RH  053%=      5-min Rain = 0
KHA2 251951Z 01020KT 19/09 A3001 RMK A01 T01930092  RH  052%=      5-min Rain = 0
KHA2 251952Z 00017KT 19/09 A3001 RMK A01 T01930092  RH  052%=      5-min Rain = 0
KHA2 251953Z 36013KT 19/09 A3001 RMK A01 T01900091  RH  053%=      5-min Rain = 0
KHA2 251954Z 35015G20KT 19/09 A3001 RMK A01 T01890092  RH  053%=      5-min Rain = 0
KHA2 251955Z 00022KT 19/09 A3001 RMK A01 T01920092  RH  052%=      5-min Rain = 0
KHA2 251956Z 35019KT 19/09 A3001 RMK A01 T01890091  RH  053%=      5-min Rain = 0
KHA2 251957Z 36015KT 19/09 A3002 RMK A01 T01860091  RH  054%=      5-min Rain = 0
KHA2 251958Z 01012KT 19/09 A3001 RMK A01 T01850092  RH  054%=      5-min Rain = 0
KHA2 251959Z 01016G22KT 19/09 A3001 RMK A01 T01880093  RH  054%=      5-min Rain = 0
KHA2 252000Z 35017KT 19/09 A3001 RMK A01 T01900092  RH  053%=      5-min Rain = 0
KHA2 252001Z 01014KT 19/09 A3002 RMK A01 T01890091  RH  053%=      5-min Rain = 0
KHA2 252002Z 01017KT 19/09 A3002 RMK A01 T01910093  RH  053%=      5-min Rain = 0
KHA2 252003Z 36018KT 19/09 A3002 RMK A01 T01910092  RH  053%=      5-min Rain = 0
KHA2 252004Z 01017KT 19/09 A3002 RMK A01 T01890091  RH  053%=      5-min Rain = 0
KHA2 252005Z 36018KT 19/09 A3002 RMK A01 T01920094  RH  053%=      5-min Rain = 0
KHA2 252006Z 35017KT 19/09 A3002 RMK A01 T01940092  RH  052%=      5-min Rain = 0
KHA2 252007Z 35016KT 19/09 A3002 RMK A01 T01890092  RH  053%=      5-min Rain = 0
KHA2 252008Z 00020KT 19/09 A3002 RMK A01 T01890092  RH  053%=      5-min Rain = 0
KHA2 252009Z 36018G23KT 19/09 A3002 RMK A01 T01890092  RH  053%=      5-min Rain = 0
KHA2 252010Z 36020KT 19/09 A3002 RMK A01 T01900091  RH  053%=      5-min Rain = 0
KHA2 252011Z 35019KT 19/09 A3002 RMK A01 T01860090  RH  054%=      5-min Rain = 0
KHA2 252012Z 36022KT 19/09 A3002 RMK A01 T01850091  RH  054%=      5-min Rain = 0
KHA2 252013Z 35021KT 19/09 A3002 RMK A01 T01850090  RH  054%=      5-min Rain = 0
KHA2 252014Z 35019KT 18/09 A3002 RMK A01 T01840090  RH  054%=      5-min Rain = 0
KHA2 252015Z 36018KT 19/09 A3002 RMK A01 T01850091  RH  054%=      5-min Rain = 0
KHA2 252016Z 35019KT 19/09 A3002 RMK A01 T01870092  RH  054%=      5-min Rain = 0
KHA2 252017Z 35016KT 19/09 A3002 RMK A01 T01870091  RH  053%=      5-min Rain = 0
KHA2 252018Z 35019KT 18/09 A3002 RMK A01 T01840091  RH  054%=      5-min Rain = 0
KHA2 252019Z 35016KT 18/09 A3002 RMK A01 T01820090  RH  055%=      5-min Rain = 0
KHA2 252020Z 35020KT 18/09 A3002 RMK A01 T01800091  RH  056%=      5-min Rain = 0
KHA2 252021Z 35019KT 18/09 A3002 RMK A01 T01790090  RH  056%=      5-min Rain = 0
KHA2 252022Z 35019KT 18/09 A3002 RMK A01 T01770090  RH  056%=      5-min Rain = 0
KHA2 252023Z 00015KT 18/09 A3002 RMK A01 T01780090  RH  056%=      5-min Rain = 0
KHA2 252024Z 01016KT 18/09 A3002 RMK A01 T01780090  RH  056%=      5-min Rain = 0
KHA2 252025Z 36019KT 18/09 A3002 RMK A01 T01780090  RH  056%=      5-min Rain = 0
KHA2 252026Z 01019KT 18/09 A3002 RMK A01 T01760089  RH  057%=      5-min Rain = 0
KHA2 252027Z 01018G23KT 18/09 A3002 RMK A01 T01760090  RH  057%=      5-min Rain = 0
KHA2 252028Z 00018KT 18/09 A3002 RMK A01 T01760089  RH  057%=      5-min Rain = 0
KHA2 252029Z 00016KT 17/09 A3002 RMK A01 T01740089  RH  057%=      5-min Rain = 0
KHA2 252030Z 36019KT 17/09 A3002 RMK A01 T01730089  RH  058%=      5-min Rain = 0
KHA2 252031Z 00019KT 18/09 A3002 RMK A01 T01750089  RH  057%=      5-min Rain = 0
KHA2 252032Z 35018KT 18/09 A3002 RMK A01 T01760088  RH  057%=      5-min Rain = 0
KHA2 252033Z 01018KT 18/09 A3002 RMK A01 T01760089  RH  057%=      5-min Rain = 0
KHA2 252034Z 36018KT 18/09 A3002 RMK A01 T01760089  RH  057%=      5-min Rain = 0
KHA2 252035Z 01018G23KT 18/09 A3002 RMK A01 T01760090  RH  057%=      5-min Rain = 0
KHA2 252036Z 00017KT 18/09 A3002 RMK A01 T01770090  RH  057%=      5-min Rain = 0
KHA2 252037Z 36020KT 18/09 A3002 RMK A01 T01780090  RH  057%=      5-min Rain = 0
KHA2 252038Z 00017KT 18/09 A3002 RMK A01 T01780090  RH  057%=      5-min Rain = 0
KHA2 252039Z 01017G22KT 18/09 A3002 RMK A01 T01760091  RH  057%=      5-min Rain = 0
KHA2 252040Z 36018KT 18/09 A3002 RMK A01 T01760090  RH  057%=      5-min Rain = 0
KHA2 252041Z 01018KT 18/09 A3002 RMK A01 T01760090  RH  057%=      5-min Rain = 0
KHA2 252042Z 00020KT 18/09 A3002 RMK A01 T01770089  RH  056%=      5-min Rain = 0
KHA2 252043Z 00022KT 18/09 A3002 RMK A01 T01780090  RH  056%=      5-min Rain = 0
KHA2 252044Z 00019KT 18/09 A3002 RMK A01 T01780089  RH  056%=      5-min Rain = 0
KHA2 252045Z 00018KT 18/09 A3002 RMK A01 T01780089  RH  056%=      5-min Rain = 0
KHA2 252046Z 36018KT 18/09 A3002 RMK A01 T01780089  RH  056%=      5-min Rain = 0
KHA2 252047Z 01019KT 18/09 A3002 RMK A01 T01780090  RH  056%=      5-min Rain = 0
KHA2 252048Z 01017KT 18/09 A3002 RMK A01 T01780091  RH  057%=      5-min Rain = 0
KHA2 252049Z 01019KT 18/09 A3002 RMK A01 T01770090  RH  057%=      5-min Rain = 0
KHA2 252050Z 36016KT 18/09 A3002 RMK A01 T01780090  RH  056%=      5-min Rain = 0
KHA2 252051Z 01018KT 18/09 A3002 RMK A01 T01800090  RH  056%=      5-min Rain = 0
KHA2 252052Z 01019KT 18/09 A3002 RMK A01 T01800089  RH  055%=      5-min Rain = 0
KHA2 252053Z 01015KT 18/09 A3002 RMK A01 T01780088  RH  056%=      5-min Rain = 0
KHA2 252054Z 01016G21KT 18/09 A3002 RMK A01 T01800090  RH  056%=      5-min Rain = 0
KHA2 252055Z 01018KT 18/09 A3002 RMK A01 T01820090  RH  055%=      5-min Rain = 0
KHA2 252056Z 36018G24KT 18/09 A3002 RMK A01 T01810089  RH  055%=      5-min Rain = 0
KHA2 252057Z 02018KT 18/09 A3002 RMK A01 T01800089  RH  055%=      5-min Rain = 0
KHA2 252058Z 01017KT 18/09 A3001 RMK A01 T01800090  RH  056%=      5-min Rain = 0
KHA2 252059Z 35021KT 18/09 A3001 RMK A01 T01810090  RH  055%=      5-min Rain = 0
KHA2 252100Z 01018KT 18/09 A3001 RMK A01 T01810089  RH  055%=      5-min Rain = 0
KHA2 252101Z 02018KT 18/09 A3001 RMK A01 T01800090  RH  055%=      5-min Rain = 0
KHA2 252102Z 01018KT 18/09 A3001 RMK A01 T01810090  RH  055%=      5-min Rain = 0
KHA2 252103Z 00015KT 18/09 A3001 RMK A01 T01810088  RH  054%=      5-min Rain = 0
KHA2 252104Z 01015G20KT 18/09 A3001 RMK A01 T01800089  RH  055%=      5-min Rain = 0
KHA2 252105Z 02017KT 18/09 A3001 RMK A01 T01820091  RH  055%=      5-min Rain = 0
KHA2 252106Z 01015KT 18/09 A3001 RMK A01 T01820090  RH  055%=      5-min Rain = 0
KHA2 252107Z 36015G21KT 18/09 A3001 RMK A01 T01800089  RH  056%=      5-min Rain = 0
KHA2 252108Z 36019KT 18/09 A3001 RMK A01 T01800089  RH  055%=      5-min Rain = 0
KHA2 252109Z 01015KT 18/09 A3001 RMK A01 T01780089  RH  056%=      5-min Rain = 0
KHA2 252110Z 00015KT 18/09 A3001 RMK A01 T01750088  RH  057%=      5-min Rain = 0
KHA2 252111Z 01013KT 17/09 A3001 RMK A01 T01740089  RH  057%=      5-min Rain = 0
KHA2 252112Z 02017KT 18/09 A3001 RMK A01 T01770089  RH  056%=      5-min Rain = 0
KHA2 252113Z 02018KT 18/09 A3001 RMK A01 T01760089  RH  056%=      5-min Rain = 0
KHA2 252114Z 02020KT 18/09 A3001 RMK A01 T01750089  RH  057%=      5-min Rain = 0
KHA2 252115Z 02018KT 17/09 A3001 RMK A01 T01740089  RH  057%=      5-min Rain = 0
KHA2 252116Z 01017KT 17/09 A3001 RMK A01 T01740089  RH  057%=      5-min Rain = 0
KHA2 252117Z 02015KT 18/09 A3001 RMK A01 T01750088  RH  057%=      5-min Rain = 0
KHA2 252118Z 02016KT 18/09 A3001 RMK A01 T01750090  RH  057%=      5-min Rain = 0
KHA2 252119Z 01017KT 18/09 A3001 RMK A01 T01750089  RH  057%=      5-min Rain = 0
KHA2 252120Z 02016KT 17/09 A3002 RMK A01 T01740087  RH  057%=      5-min Rain = 0
KHA2 252121Z 02015KT 17/09 A3002 RMK A01 T01730089  RH  057%=      5-min Rain = 0
KHA2 252122Z 00014KT 17/09 A3002 RMK A01 T01730089  RH  058%=      5-min Rain = 0
KHA2 252123Z 35014KT 18/09 A3002 RMK A01 T01750089  RH  057%=      5-min Rain = 0
KHA2 252124Z 36018KT 18/09 A3002 RMK A01 T01760088  RH  056%=      5-min Rain = 0
KHA2 252125Z 35017KT 18/09 A3002 RMK A01 T01750087  RH  056%=      5-min Rain = 0
KHA2 252126Z 35015KT 17/09 A3002 RMK A01 T01730088  RH  057%=      5-min Rain = 0
KHA2 252127Z 00015KT 17/09 A3002 RMK A01 T01720088  RH  058%=      5-min Rain = 0
KHA2 252128Z 00017KT 17/09 A3002 RMK A01 T01720088  RH  058%=      5-min Rain = 0
KHA2 252129Z 36017KT 17/09 A3002 RMK A01 T01720088  RH  058%=      5-min Rain = 0
KHA2 252130Z 35015KT 17/09 A3002 RMK A01 T01720088  RH  058%=      5-min Rain = 0
KHA2 252131Z 35014KT 17/09 A3002 RMK A01 T01700088  RH  058%=      5-min Rain = 0
KHA2 252132Z 35014KT 17/09 A3002 RMK A01 T01720089  RH  058%=      5-min Rain = 0
KHA2 252133Z 34016KT 17/09 A3002 RMK A01 T01730090  RH  058%=      5-min Rain = 0
KHA2 252134Z 35017KT 17/09 A3002 RMK A01 T01730089  RH  058%=      5-min Rain = 0
KHA2 252135Z 35017KT 17/09 A3002 RMK A01 T01730089  RH  058%=      5-min Rain = 0
KHA2 252136Z 35016KT 17/09 A3002 RMK A01 T01740089  RH  057%=      5-min Rain = 0
KHA2 252137Z 01014KT 18/09 A3002 RMK A01 T01750089  RH  057%=      5-min Rain = 0
KHA2 252138Z 01014KT 17/09 A3002 RMK A01 T01740090  RH  058%=      5-min Rain = 0
KHA2 252139Z 36015KT 17/09 A3002 RMK A01 T01730089  RH  058%=      5-min Rain = 0
KHA2 252140Z 00018KT 17/09 A3001 RMK A01 T01720089  RH  058%=      5-min Rain = 0
KHA2 252141Z 01016G21KT 17/09 A3002 RMK A01 T01720089  RH  058%=      5-min Rain = 0
KHA2 252142Z 01017KT 17/09 A3002 RMK A01 T01720088  RH  058%=      5-min Rain = 0
KHA2 252143Z 00014KT 17/09 A3002 RMK A01 T01710088  RH  058%=      5-min Rain = 0
KHA2 252144Z 00014KT 17/09 A3002 RMK A01 T01700088  RH  058%=      5-min Rain = 0
KHA2 252145Z 01012KT 17/09 A3002 RMK A01 T01710089  RH  058%=      5-min Rain = 0
KHA2 252146Z 01018KT 17/09 A3002 RMK A01 T01720088  RH  058%=      5-min Rain = 0
KHA2 252147Z 01015KT 17/09 A3002 RMK A01 T01700088  RH  058%=      5-min Rain = 0
KHA2 252148Z 02015KT 17/09 A3002 RMK A01 T01700089  RH  059%=      5-min Rain = 0
KHA2 252149Z 01015KT 17/09 A3002 RMK A01 T01700088  RH  058%=      5-min Rain = 0
KHA2 252150Z 01016KT 17/09 A3002 RMK A01 T01690088  RH  059%=      5-min Rain = 0
KHA2 252151Z 00016KT 17/09 A3002 RMK A01 T01680088  RH  059%=      5-min Rain = 0
KHA2 252152Z 36017KT 17/09 A3002 RMK A01 T01670087  RH  059%=      5-min Rain = 0
KHA2 252153Z 36015KT 17/09 A3002 RMK A01 T01670086  RH  059%=      5-min Rain = 0
KHA2 252154Z 36014KT 17/09 A3002 RMK A01 T01670087  RH  059%=      5-min Rain = 0
KHA2 252155Z 36014KT 17/09 A3002 RMK A01 T01670086  RH  059%=      5-min Rain = 0
KHA2 252156Z 35015KT 17/09 A3002 RMK A01 T01670086  RH  059%=      5-min Rain = 0
KHA2 252157Z 35016KT 17/09 A3002 RMK A01 T01670086  RH  059%=      5-min Rain = 0
KHA2 252158Z 35018KT 17/09 A3002 RMK A01 T01660086  RH  059%=      5-min Rain = 0
KHA2 252159Z 36016KT 17/09 A3002 RMK A01 T01660087  RH  060%=      5-min Rain = 0
KHA2 252200Z 00014KT 17/09 A3002 RMK A01 T01650088  RH  060%=      5-min Rain = 0
KHA2 252201Z 00015KT 16/09 A3003 RMK A01 T01640089  RH  061%=      5-min Rain = 0
KHA2 252202Z 36014KT 16/09 A3003 RMK A01 T01630091  RH  062%=      5-min Rain = 0
KHA2 252203Z 35015KT 16/09 A3003 RMK A01 T01640093  RH  063%=      5-min Rain = 0
KHA2 252204Z 00016KT 16/09 A3003 RMK A01 T01620094  RH  064%=      5-min Rain = 0
KHA2 252205Z 00015KT 16/10 A3003 RMK A01 T01600095  RH  066%=      5-min Rain = 0
KHA2 252206Z 00015KT 16/10 A3003 RMK A01 T01580096  RH  067%=      5-min Rain = 0
KHA2 252207Z 00016KT 16/10 A3003 RMK A01 T01560096  RH  067%=      5-min Rain = 0
KHA2 252208Z 36015KT 16/10 A3003 RMK A01 T01550098  RH  069%=      5-min Rain = 0
KHA2 252209Z 35014KT 15/10 A3003 RMK A01 T01540099  RH  069%=      5-min Rain = 0
KHA2 252210Z 00013KT 15/10 A3003 RMK A01 T01540100  RH  070%=      5-min Rain = 0
KHA2 252211Z 00013KT 15/10 A3003 RMK A01 T01530100  RH  071%=      5-min Rain = 0
KHA2 252212Z 36013KT 15/10 A3003 RMK A01 T01520104  RH  073%=      5-min Rain = 0
KHA2 252213Z 35013KT 15/11 A3003 RMK A01 T01510107  RH  075%=      5-min Rain = 0
KHA2 252214Z 34013KT 15/11 A3003 RMK A01 T01500110  RH  077%=      5-min Rain = 0
KHA2 252215Z 34015KT 15/11 A3003 RMK A01 T01490109  RH  077%=      5-min Rain = 0
KHA2 252216Z 34015KT 15/11 A3003 RMK A01 T01470109  RH  078%=      5-min Rain = 0
KHA2 252217Z 34013KT 15/11 A3004 RMK A01 T01470109  RH  078%=      5-min Rain = 0
KHA2 252218Z 34013KT 15/11 A3004 RMK A01 T01460109  RH  079%=      5-min Rain = 0
KHA2 252219Z 34012KT 15/11 A3004 RMK A01 T01460112  RH  080%=      5-min Rain = 0
KHA2 252220Z 35013KT 15/11 A3003 RMK A01 T01460111  RH  080%=      5-min Rain = 0
KHA2 252221Z 35014KT 15/11 A3003 RMK A01 T01460111  RH  080%=      5-min Rain = 0
KHA2 252222Z 35014KT 15/11 A3003 RMK A01 T01450110  RH  080%=      5-min Rain = 0
KHA2 252223Z 35014KT 14/11 A3003 RMK A01 T01440109  RH  080%=      5-min Rain = 0
KHA2 252224Z 35014KT 14/11 A3003 RMK A01 T01440110  RH  080%=      5-min Rain = 0
KHA2 252225Z 35014KT 14/11 A3003 RMK A01 T01430110  RH  081%=      5-min Rain = 0
KHA2 252226Z 35014KT 14/11 A3003 RMK A01 T01440110  RH  080%=      5-min Rain = 0
KHA2 252227Z 35013KT 14/11 A3003 RMK A01 T01430109  RH  080%=      5-min Rain = 0
KHA2 252228Z 35013KT 14/11 A3003 RMK A01 T01430108  RH  079%=      5-min Rain = 0
KHA2 252229Z 35013KT 14/11 A3003 RMK A01 T01430109  RH  080%=      5-min Rain = 0
KHA2 252230Z 35012KT 14/11 A3003 RMK A01 T01430110  RH  081%=      5-min Rain = 0
KHA2 252231Z 35013KT 14/11 A3003 RMK A01 T01430112  RH  082%=      5-min Rain = 0
KHA2 252232Z 35013KT 14/11 A3003 RMK A01 T01420113  RH  082%=      5-min Rain = 0
KHA2 252233Z 35012KT 14/11 A3003 RMK A01 T01420114  RH  083%=      5-min Rain = 0
KHA2 252234Z 35012KT 14/12 A3003 RMK A01 T01420115  RH  084%=      5-min Rain = 0
KHA2 252235Z 35013KT 14/12 A3003 RMK A01 T01410115  RH  084%=      5-min Rain = 0
KHA2 252236Z 35013KT 14/12 A3003 RMK A01 T01400115  RH  085%=      5-min Rain = 0
KHA2 252237Z 35012KT 14/12 A3003 RMK A01 T01400116  RH  086%=      5-min Rain = 0
KHA2 252238Z 35012KT 14/12 A3003 RMK A01 T01390115  RH  085%=      5-min Rain = 0
KHA2 252239Z 35011KT 14/12 A3004 RMK A01 T01390117  RH  086%=      5-min Rain = 0
KHA2 252240Z 34012KT 14/12 A3004 RMK A01 T01380116  RH  087%=      5-min Rain = 0
KHA2 252241Z 34010KT 14/12 A3004 RMK A01 T01370116  RH  087%=      5-min Rain = 0
KHA2 252242Z 34011KT 14/12 A3004 RMK A01 T01370117  RH  088%=      5-min Rain = 0
KHA2 252243Z 34011KT 14/12 A3004 RMK A01 T01360115  RH  087%=      5-min Rain = 0
KHA2 252244Z 34010KT 14/12 A3004 RMK A01 T01350115  RH  087%=      5-min Rain = 0
KHA2 252245Z 35009KT 14/12 A3004 RMK A01 T01350117  RH  089%=      5-min Rain = 0
KHA2 252246Z 35010KT 14/12 A3003 RMK A01 T01350118  RH  090%=      5-min Rain = 0
KHA2 252247Z 35010KT 13/12 A3003 RMK A01 T01340117  RH  089%=      5-min Rain = 0
KHA2 252248Z 36012KT 13/12 A3003 RMK A01 T01340117  RH  089%=      5-min Rain = 0
KHA2 252249Z 36011KT 13/11 A3003 RMK A01 T01330114  RH  089%=      5-min Rain = 0.01
KHA2 252250Z 36009KT 13/12 A3003 RMK A01 T01320116  RH  090%=      5-min Rain = 0
KHA2 252251Z 36009KT 13/12 A3003 RMK A01 T01320118  RH  091%=      5-min Rain = 0.01
KHA2 252252Z 35009KT 13/12 A3003 RMK A01 T01310117  RH  091%=      5-min Rain = 0
KHA2 252253Z 35009KT 13/12 A3003 RMK A01 T01310116  RH  091%=      5-min Rain = 0
KHA2 252254Z 36009KT 13/12 A3003 RMK A01 T01300117  RH  091%=      5-min Rain = 0
KHA2 252255Z 00008KT 13/12 A3003 RMK A01 T01300118  RH  092%=      5-min Rain = 0
KHA2 252256Z 00010KT 13/12 A3003 RMK A01 T01300118  RH  092%=      5-min Rain = 0.01
KHA2 252257Z 00008KT 13/12 A3003 RMK A01 T01300118  RH  092%=      5-min Rain = 0
KHA2 252258Z 35009KT 13/12 A3003 RMK A01 T01300119  RH  093%=      5-min Rain = 0
KHA2 252259Z 36008KT 13/12 A3003 RMK A01 T01300119  RH  093%=      5-min Rain = 0
KHA2 252300Z 35009KT 13/12 A3003 RMK A01 T01300120  RH  093%=      5-min Rain = 0
KHA2 252301Z 35010KT 13/12 A3003 RMK A01 T01300118  RH  092%=      5-min Rain = 0
KHA2 252302Z 36009KT 13/12 A3003 RMK A01 T01300116  RH  091%=      5-min Rain = 0
KHA2 252303Z 36008KT 13/12 A3003 RMK A01 T01300116  RH  091%=      5-min Rain = 0
KHA2 252304Z 00008KT 13/12 A3003 RMK A01 T01300117  RH  092%=      5-min Rain = 0
KHA2 252305Z 00007KT 13/12 A3003 RMK A01 T01300117  RH  092%=      5-min Rain = 0
KHA2 252306Z 00007KT 13/12 A3003 RMK A01 T01300117  RH  092%=      5-min Rain = 0.01
KHA2 252307Z 01006KT 13/12 A3003 RMK A01 T01300117  RH  092%=      5-min Rain = 0
KHA2 252308Z 01006KT 13/12 A3003 RMK A01 T01300118  RH  092%=      5-min Rain = 0
KHA2 252309Z 01006KT 13/12 A3003 RMK A01 T01300118  RH  092%=      5-min Rain = 0
KHA2 252310Z 01007KT 13/12 A3003 RMK A01 T01300116  RH  091%=      5-min Rain = 0.01
KHA2 252311Z 01006KT 13/12 A3003 RMK A01 T01300116  RH  091%=      5-min Rain = 0
KHA2 252312Z 01005KT 13/12 A3003 RMK A01 T01300116  RH  091%=      5-min Rain = 0
KHA2 252313Z 01006KT 13/12 A3003 RMK A01 T01300117  RH  091%=      5-min Rain = 0
KHA2 252314Z 02005KT 13/12 A3003 RMK A01 T01300115  RH  091%=      5-min Rain = 0.01
KHA2 252315Z 02005KT 13/11 A3003 RMK A01 T01300114  RH  090%=      5-min Rain = 0
KHA2 252316Z 02006KT 13/11 A3003 RMK A01 T01300114  RH  090%=      5-min Rain = 0
KHA2 252317Z 03005KT 13/12 A3003 RMK A01 T01300116  RH  091%=      5-min Rain = 0.01
KHA2 252318Z 03006KT 13/12 A3003 RMK A01 T01310118  RH  091%=      5-min Rain = 0
KHA2 252319Z 04006KT 13/12 A3003 RMK A01 T01320117  RH  091%=      5-min Rain = 0
KHA2 252320Z 03004KT 13/12 A3003 RMK A01 T01310117  RH  091%=      5-min Rain = 0
KHA2 252321Z 03005KT 13/12 A3003 RMK A01 T01320120  RH  092%=      5-min Rain = 0
KHA2 252322Z 03005KT 13/12 A3002 RMK A01 T01320120  RH  092%=      5-min Rain = 0.01
KHA2 252323Z 03006KT 13/12 A3002 RMK A01 T01320119  RH  092%=      5-min Rain = 0
KHA2 252324Z 04005KT 13/12 A3002 RMK A01 T01320118  RH  091%=      5-min Rain = 0
KHA2 252325Z 04005KT 13/12 A3002 RMK A01 T01330118  RH  091%=      5-min Rain = 0
KHA2 252326Z 03005KT 13/12 A3002 RMK A01 T01330119  RH  092%=      5-min Rain = 0
KHA2 252327Z 04005KT 13/12 A3002 RMK A01 T01330120  RH  091%=      5-min Rain = 0
KHA2 252328Z 04006KT 13/12 A3002 RMK A01 T01330118  RH  090%=      5-min Rain = 0
KHA2 252329Z 04006KT 13/12 A3002 RMK A01 T01330115  RH  089%=      5-min Rain = 0
KHA2 252330Z 03006KT 13/12 A3002 RMK A01 T01330116  RH  089%=      5-min Rain = 0
KHA2 252331Z 03006KT 13/12 A3002 RMK A01 T01330117  RH  090%=      5-min Rain = 0
KHA2 252332Z 02005KT 13/12 A3002 RMK A01 T01340120  RH  091%=      5-min Rain = 0
KHA2 252333Z 02006KT 14/12 A3002 RMK A01 T01350122  RH  092%=      5-min Rain = 0
KHA2 252334Z 02007KT 14/12 A3002 RMK A01 T01350121  RH  091%=      5-min Rain = 0
KHA2 252335Z 01006KT 14/12 A3002 RMK A01 T01350120  RH  091%=      5-min Rain = 0
KHA2 252336Z 02007KT 14/12 A3002 RMK A01 T01360122  RH  091%=      5-min Rain = 0
KHA2 252337Z 02007KT 14/12 A3002 RMK A01 T01360121  RH  091%=      5-min Rain = 0
KHA2 252338Z 02008KT 14/12 A3002 RMK A01 T01360121  RH  091%=      5-min Rain = 0
KHA2 252339Z 02008KT 14/12 A3002 RMK A01 T01350121  RH  091%=      5-min Rain = 0
KHA2 252340Z 02009KT 14/12 A3002 RMK A01 T01360121  RH  091%=      5-min Rain = 0
KHA2 252341Z 02009KT 14/12 A3002 RMK A01 T01360120  RH  090%=      5-min Rain = 0
KHA2 252342Z 01009KT 14/12 A3002 RMK A01 T01360119  RH  090%=      5-min Rain = 0
KHA2 252343Z 01009KT 14/12 A3002 RMK A01 T01360119  RH  090%=      5-min Rain = 0
KHA2 252344Z 01008KT 14/12 A3002 RMK A01 T01360121  RH  091%=      5-min Rain = 0
KHA2 252345Z 02008KT 14/12 A3001 RMK A01 T01360123  RH  092%=      5-min Rain = 0
KHA2 252346Z 02007KT 14/12 A3001 RMK A01 T01370124  RH  092%=      5-min Rain = 0
KHA2 252347Z 02009KT 14/13 A3001 RMK A01 T01380127  RH  093%=      5-min Rain = 0
KHA2 252348Z 02009KT 14/12 A3001 RMK A01 T01380122  RH  090%=      5-min Rain = 0
KHA2 252349Z 02008KT 14/12 A3001 RMK A01 T01380123  RH  091%=      5-min Rain = 0
KHA2 252350Z 02009KT 14/12 A3001 RMK A01 T01380124  RH  091%=      5-min Rain = 0
KHA2 252351Z 01010KT 14/12 A3001 RMK A01 T01380123  RH  091%=      5-min Rain = 0
KHA2 252352Z 01009KT 14/13 A3001 RMK A01 T01390125  RH  091%=      5-min Rain = 0
KHA2 252353Z 01011KT 14/13 A3001 RMK A01 T01390125  RH  091%=      5-min Rain = 0
KHA2 252354Z 01012KT 14/12 A3001 RMK A01 T01380122  RH  090%=      5-min Rain = 0
KHA2 252355Z 01011KT 14/12 A3001 RMK A01 T01380121  RH  090%=      5-min Rain = 0
KHA2 252356Z 01010KT 14/12 A3001 RMK A01 T01370122  RH  090%=      5-min Rain = 0
KHA2 252357Z 01011KT 14/12 A3001 RMK A01 T01370122  RH  091%=      5-min Rain = 0
KHA2 252358Z 01011KT 14/12 A3001 RMK A01 T01370122  RH  090%=      5-min Rain = 0
KHA2 252359Z 00010KT 14/12 A3001 RMK A01 T01380123  RH  091%=      5-min Rain = 0
KHA2 260000Z 01012KT 14/12 A3001 RMK A01 T01380124  RH  091%=      5-min Rain = 0
KHA2 260001Z 01013KT 14/12 A3001 RMK A01 T01380122  RH  090%=      5-min Rain = 0
KHA2 260002Z 01012KT 14/12 A3001 RMK A01 T01380122  RH  090%=      5-min Rain = 0
KHA2 260003Z 01012KT 14/12 A3001 RMK A01 T01370122  RH  090%=      5-min Rain = 0
KHA2 260004Z 01010KT 14/12 A3001 RMK A01 T01370121  RH  090%=      5-min Rain = 0
KHA2 260005Z 01011KT 14/12 A3001 RMK A01 T01370123  RH  091%=      5-min Rain = 0
KHA2 260006Z 01010KT 14/12 A3001 RMK A01 T01380124  RH  091%=      5-min Rain = 0
KHA2 260007Z 01010KT 14/13 A3001 RMK A01 T01380125  RH  091%=      5-min Rain = 0
KHA2 260008Z 02011KT 14/12 A3001 RMK A01 T01380122  RH  090%=      5-min Rain = 0
KHA2 260009Z 01009KT 14/12 A3001 RMK A01 T01380122  RH  090%=      5-min Rain = 0
KHA2 260010Z 01011KT 14/12 A3001 RMK A01 T01380122  RH  090%=      5-min Rain = 0
KHA2 260011Z 01013KT 14/12 A3001 RMK A01 T01380119  RH  089%=      5-min Rain = 0
KHA2 260012Z 01012KT 14/12 A3001 RMK A01 T01370118  RH  088%=      5-min Rain = 0
KHA2 260013Z 01012KT 14/12 A3001 RMK A01 T01370119  RH  089%=      5-min Rain = 0
KHA2 260014Z 01011KT 14/12 A3001 RMK A01 T01370119  RH  089%=      5-min Rain = 0
KHA2 260015Z 01012KT 14/12 A3001 RMK A01 T01370118  RH  088%=      5-min Rain = 0
KHA2 260016Z 01011KT 14/12 A3001 RMK A01 T01370119  RH  089%=      5-min Rain = 0
KHA2 260017Z 01010KT 14/12 A3001 RMK A01 T01370120  RH  090%=      5-min Rain = 0.01
KHA2 260018Z 01009KT 14/12 A3001 RMK A01 T01370121  RH  090%=      5-min Rain = 0
KHA2 260019Z 01011KT 14/12 A3001 RMK A01 T01380122  RH  090%=      5-min Rain = 0
KHA2 260020Z 01011KT 14/12 A3001 RMK A01 T01380119  RH  088%=      5-min Rain = 0
KHA2 260021Z 01010KT 14/12 A3001 RMK A01 T01380120  RH  089%=      5-min Rain = 0
KHA2 260022Z 00010KT 14/12 A3001 RMK A01 T01380122  RH  090%=      5-min Rain = 0
KHA2 260023Z 00011KT 14/12 A3001 RMK A01 T01390122  RH  090%=      5-min Rain = 0
KHA2 260024Z 01010KT 14/12 A3001 RMK A01 T01380121  RH  089%=      5-min Rain = 0
KHA2 260025Z 01010KT 14/12 A3001 RMK A01 T01380122  RH  090%=      5-min Rain = 0
KHA2 260026Z 01011KT 14/12 A3001 RMK A01 T01380122  RH  090%=      5-min Rain = 0
KHA2 260027Z 01011KT 14/12 A3001 RMK A01 T01380121  RH  089%=      5-min Rain = 0
KHA2 260028Z 01011KT 14/12 A3001 RMK A01 T01390119  RH  088%=      5-min Rain = 0
KHA2 260029Z 01010KT 14/12 A3001 RMK A01 T01380119  RH  088%=      5-min Rain = 0
KHA2 260030Z 01010KT 14/12 A3001 RMK A01 T01390119  RH  088%=      5-min Rain = 0
KHA2 260031Z 01011KT 14/12 A3001 RMK A01 T01390119  RH  088%=      5-min Rain = 0
KHA2 260032Z 00010KT 14/12 A3001 RMK A01 T01390119  RH  088%=      5-min Rain = 0
KHA2 260033Z 00009KT 14/12 A3001 RMK A01 T01390121  RH  089%=      5-min Rain = 0
KHA2 260034Z 00009KT 14/12 A3001 RMK A01 T01390123  RH  090%=      5-min Rain = 0
KHA2 260035Z 01010KT 14/12 A3001 RMK A01 T01390122  RH  089%=      5-min Rain = 0
KHA2 260036Z 00011KT 14/12 A3001 RMK A01 T01390121  RH  089%=      5-min Rain = 0
KHA2 260037Z 00010KT 14/12 A3001 RMK A01 T01390120  RH  089%=      5-min Rain = 0
KHA2 260038Z 00010KT 14/12 A3001 RMK A01 T01390121  RH  089%=      5-min Rain = 0
KHA2 260039Z 01009KT 14/12 A3001 RMK A01 T01390122  RH  090%=      5-min Rain = 0
KHA2 260040Z 00010KT 14/12 A3001 RMK A01 T01390121  RH  089%=      5-min Rain = 0
KHA2 260041Z 00011KT 14/12 A3002 RMK A01 T01390121  RH  089%=      5-min Rain = 0
KHA2 260042Z 00010KT 14/12 A3002 RMK A01 T01390120  RH  088%=      5-min Rain = 0
KHA2 260043Z 00010KT 14/12 A3002 RMK A01 T01390119  RH  088%=      5-min Rain = 0
KHA2 260044Z 36011KT 14/12 A3002 RMK A01 T01390118  RH  088%=      5-min Rain = 0
KHA2 260045Z 36010KT 14/12 A3002 RMK A01 T01390120  RH  088%=      5-min Rain = 0
KHA2 260046Z 36009KT 14/12 A3002 RMK A01 T01380120  RH  089%=      5-min Rain = 0
KHA2 260047Z 36011KT 14/12 A3002 RMK A01 T01390122  RH  090%=      5-min Rain = 0
KHA2 260048Z 36010KT 14/12 A3002 RMK A01 T01380121  RH  089%=      5-min Rain = 0
KHA2 260049Z 36009KT 14/12 A3002 RMK A01 T01390122  RH  090%=      5-min Rain = 0
KHA2 260050Z 35010KT 14/12 A3002 RMK A01 T01380123  RH  090%=      5-min Rain = 0
KHA2 260051Z 36009KT 14/12 A3002 RMK A01 T01380122  RH  090%=      5-min Rain = 0
KHA2 260052Z 36010KT 14/12 A3002 RMK A01 T01380122  RH  090%=      5-min Rain = 0
KHA2 260053Z 00010KT 14/12 A3002 RMK A01 T01380122  RH  090%=      5-min Rain = 0
KHA2 260054Z 36010KT 14/12 A3002 RMK A01 T01380121  RH  089%=      5-min Rain = 0
KHA2 260055Z 36009KT 14/12 A3002 RMK A01 T01380121  RH  089%=      5-min Rain = 0
KHA2 260056Z 00008KT 14/12 A3002 RMK A01 T01380121  RH  089%=      5-min Rain = 0
KHA2 260057Z 36008KT 14/12 A3002 RMK A01 T01380122  RH  090%=      5-min Rain = 0
KHA2 260058Z 36010KT 14/12 A3002 RMK A01 T01380122  RH  090%=      5-min Rain = 0
KHA2 260059Z 36010KT 14/12 A3002 RMK A01 T01380121  RH  089%=      5-min Rain = 0
KHA2 260100Z 00009KT 14/12 A3002 RMK A01 T01380120  RH  089%=      5-min Rain = 0
KHA2 260101Z 00009KT 14/12 A3002 RMK A01 T01380120  RH  089%=      5-min Rain = 0
KHA2 260102Z 01009KT 14/12 A3002 RMK A01 T01380119  RH  089%=      5-min Rain = 0
KHA2 260103Z 01008KT 14/12 A3002 RMK A01 T01380119  RH  088%=      5-min Rain = 0
KHA2 260104Z 00009KT 14/12 A3002 RMK A01 T01380120  RH  089%=      5-min Rain = 0
KHA2 260105Z 36009KT 14/12 A3002 RMK A01 T01380119  RH  088%=      5-min Rain = 0
KHA2 260106Z 36008KT 14/12 A3002 RMK A01 T01380119  RH  088%=      5-min Rain = 0
KHA2 260107Z 36007KT 14/12 A3002 RMK A01 T01380121  RH  089%=      5-min Rain = 0
KHA2 260108Z 36008KT 14/12 A3002 RMK A01 T01390121  RH  089%=      5-min Rain = 0
KHA2 260109Z 36007KT 14/12 A3002 RMK A01 T01390121  RH  089%=      5-min Rain = 0
KHA2 260110Z 36007KT 14/12 A3002 RMK A01 T01400120  RH  088%=      5-min Rain = 0
KHA2 260111Z 35008KT 14/12 A3002 RMK A01 T01400120  RH  088%=      5-min Rain = 0
KHA2 260112Z 36008KT 14/12 A3002 RMK A01 T01400120  RH  088%=      5-min Rain = 0
KHA2 260113Z 35007KT 14/12 A3002 RMK A01 T01400120  RH  088%=      5-min Rain = 0
KHA2 260114Z 36007KT 14/12 A3002 RMK A01 T01390119  RH  087%=      5-min Rain = 0
KHA2 260115Z 36007KT 14/12 A3002 RMK A01 T01390120  RH  088%=      5-min Rain = 0
KHA2 260116Z 36007KT 14/12 A3002 RMK A01 T01390120  RH  088%=      5-min Rain = 0
KHA2 260117Z 36007KT 14/12 A3002 RMK A01 T01390118  RH  087%=      5-min Rain = 0
KHA2 260118Z 35006KT 14/12 A3002 RMK A01 T01400119  RH  088%=      5-min Rain = 0
KHA2 260119Z 36007KT 14/12 A3002 RMK A01 T01390119  RH  087%=      5-min Rain = 0
KHA2 260120Z 36007KT 14/12 A3002 RMK A01 T01390120  RH  088%=      5-min Rain = 0
KHA2 260121Z 35008KT 14/12 A3002 RMK A01 T01390119  RH  088%=      5-min Rain = 0
KHA2 260122Z 36008KT 14/12 A3003 RMK A01 T01390118  RH  087%=      5-min Rain = 0
KHA2 260123Z 36007KT 14/12 A3003 RMK A01 T01390118  RH  088%=      5-min Rain = 0
KHA2 260124Z 36007KT 14/12 A3003 RMK A01 T01390118  RH  087%=      5-min Rain = 0
KHA2 260125Z 36007KT 14/12 A3003 RMK A01 T01390118  RH  087%=      5-min Rain = 0
KHA2 260126Z 36007KT 14/12 A3002 RMK A01 T01390117  RH  087%=      5-min Rain = 0
KHA2 260127Z 36006KT 14/12 A3002 RMK A01 T01380117  RH  087%=      5-min Rain = 0
KHA2 260128Z 36007KT 14/12 A3002 RMK A01 T01390118  RH  087%=      5-min Rain = 0
KHA2 260129Z 36006KT 14/12 A3002 RMK A01 T01390118  RH  087%=      5-min Rain = 0
KHA2 260130Z 36006KT 14/12 A3002 RMK A01 T01380119  RH  088%=      5-min Rain = 0
KHA2 260131Z 36006KT 14/12 A3003 RMK A01 T01380119  RH  088%=      5-min Rain = 0
KHA2 260132Z 36007KT 14/12 A3003 RMK A01 T01370118  RH  088%=      5-min Rain = 0
KHA2 260133Z 36006KT 14/12 A3003 RMK A01 T01370117  RH  088%=      5-min Rain = 0
KHA2 260134Z 36006KT 14/12 A3003 RMK A01 T01370118  RH  088%=      5-min Rain = 0
KHA2 260135Z 36006KT 14/12 A3003 RMK A01 T01370117  RH  088%=      5-min Rain = 0
KHA2 260136Z 36006KT 14/12 A3003 RMK A01 T01370117  RH  088%=      5-min Rain = 0
KHA2 260137Z 35006KT 14/12 A3003 RMK A01 T01360117  RH  088%=      5-min Rain = 0
KHA2 260138Z 36006KT 14/12 A3003 RMK A01 T01360117  RH  088%=      5-min Rain = 0
KHA2 260139Z 36005KT 14/12 A3003 RMK A01 T01350117  RH  089%=      5-min Rain = 0
KHA2 260140Z 36005KT 14/12 A3003 RMK A01 T01350117  RH  089%=      5-min Rain = 0
KHA2 260141Z 00006KT 14/12 A3003 RMK A01 T01350117  RH  089%=      5-min Rain = 0
KHA2 260142Z 36005KT 14/12 A3003 RMK A01 T01350117  RH  089%=      5-min Rain = 0
KHA2 260143Z 35005KT 13/12 A3003 RMK A01 T01340118  RH  090%=      5-min Rain = 0
KHA2 260144Z 35005KT 13/12 A3003 RMK A01 T01340118  RH  090%=      5-min Rain = 0
KHA2 260145Z 35005KT 13/12 A3003 RMK A01 T01340118  RH  090%=      5-min Rain = 0
KHA2 260146Z 36005KT 13/12 A3003 RMK A01 T01340118  RH  090%=      5-min Rain = 0
KHA2 260147Z 35005KT 13/12 A3003 RMK A01 T01330118  RH  090%=      5-min Rain = 0
KHA2 260148Z 35005KT 13/12 A3003 RMK A01 T01330118  RH  090%=      5-min Rain = 0
KHA2 260149Z 34006KT 13/12 A3003 RMK A01 T01330118  RH  090%=      5-min Rain = 0
KHA2 260150Z 35006KT 13/12 A3003 RMK A01 T01330117  RH  090%=      5-min Rain = 0
KHA2 260151Z 35006KT 13/12 A3003 RMK A01 T01330117  RH  090%=      5-min Rain = 0
KHA2 260152Z 35005KT 13/12 A3003 RMK A01 T01330117  RH  090%=      5-min Rain = 0
KHA2 260153Z 35005KT 13/12 A3003 RMK A01 T01330118  RH  090%=      5-min Rain = 0
KHA2 260154Z 35005KT 13/12 A3003 RMK A01 T01330117  RH  090%=      5-min Rain = 0
KHA2 260155Z 35005KT 13/12 A3003 RMK A01 T01330117  RH  090%=      5-min Rain = 0
KHA2 260156Z 34005KT 13/12 A3003 RMK A01 T01320116  RH  090%=      5-min Rain = 0
KHA2 260157Z 34006KT 13/12 A3003 RMK A01 T01330117  RH  090%=      5-min Rain = 0
KHA2 260158Z 34006KT 13/12 A3003 RMK A01 T01320117  RH  090%=      5-min Rain = 0
KHA2 260159Z 34006KT 13/12 A3003 RMK A01 T01320116  RH  090%=      5-min Rain = 0
KHA2 260200Z 33005KT 13/12 A3003 RMK A01 T01310116  RH  090%=      5-min Rain = 0
KHA2 260201Z 33004KT 13/12 A3003 RMK A01 T01310115  RH  090%=      5-min Rain = 0
KHA2 260202Z 33005KT 13/12 A3003 RMK A01 T01310115  RH  090%=      5-min Rain = 0
KHA2 260203Z 33005KT 13/12 A3003 RMK A01 T01320115  RH  089%=      5-min Rain = 0
KHA2 260204Z 33006KT 13/12 A3003 RMK A01 T01320115  RH  089%=      5-min Rain = 0
KHA2 260205Z 33006KT 13/12 A3003 RMK A01 T01320115  RH  089%=      5-min Rain = 0
KHA2 260206Z 33006KT 13/12 A3003 RMK A01 T01320115  RH  090%=      5-min Rain = 0
KHA2 260207Z 33006KT 13/12 A3003 RMK A01 T01320116  RH  090%=      5-min Rain = 0
KHA2 260208Z 33005KT 13/12 A3003 RMK A01 T01320116  RH  090%=      5-min Rain = 0
KHA2 260209Z 33005KT 13/12 A3003 RMK A01 T01310116  RH  090%=      5-min Rain = 0
KHA2 260210Z 34005KT 13/12 A3003 RMK A01 T01310116  RH  091%=      5-min Rain = 0
KHA2 260211Z 34005KT 13/12 A3003 RMK A01 T01310116  RH  091%=      5-min Rain = 0
KHA2 260212Z 34005KT 13/12 A3003 RMK A01 T01310115  RH  090%=      5-min Rain = 0
KHA2 260213Z 34005KT 13/12 A3003 RMK A01 T01310115  RH  090%=      5-min Rain = 0
KHA2 260214Z 34004KT 13/12 A3003 RMK A01 T01310115  RH  090%=      5-min Rain = 0
KHA2 260215Z 33004KT 13/12 A3003 RMK A01 T01310116  RH  090%=      5-min Rain = 0
KHA2 260216Z 33004KT 13/12 A3003 RMK A01 T01310115  RH  090%=      5-min Rain = 0
KHA2 260217Z 33005KT 13/12 A3003 RMK A01 T01310115  RH  090%=      5-min Rain = 0
KHA2 260218Z 33005KT 13/12 A3003 RMK A01 T01300115  RH  090%=      5-min Rain = 0
KHA2 260219Z 32006KT 13/12 A3004 RMK A01 T01300115  RH  091%=      5-min Rain = 0
KHA2 260220Z 32006KT 13/12 A3004 RMK A01 T01300115  RH  091%=      5-min Rain = 0
KHA2 260221Z 32006KT 13/12 A3004 RMK A01 T01300115  RH  091%=      5-min Rain = 0
KHA2 260222Z 32006KT 13/12 A3004 RMK A01 T01290115  RH  091%=      5-min Rain = 0
KHA2 260223Z 32006KT 13/11 A3004 RMK A01 T01290114  RH  091%=      5-min Rain = 0
KHA2 260224Z 32005KT 13/11 A3004 RMK A01 T01290114  RH  091%=      5-min Rain = 0
KHA2 260225Z 32005KT 13/11 A3004 RMK A01 T01290114  RH  091%=      5-min Rain = 0
KHA2 260226Z 32005KT 13/11 A3004 RMK A01 T01280113  RH  091%=      5-min Rain = 0
KHA2 260227Z 32005KT 13/11 A3004 RMK A01 T01280113  RH  091%=      5-min Rain = 0
KHA2 260228Z 32005KT 13/11 A3004 RMK A01 T01280113  RH  091%=      5-min Rain = 0
KHA2 260229Z 32005KT 13/11 A3004 RMK A01 T01280113  RH  091%=      5-min Rain = 0
KHA2 260230Z 31005KT 13/11 A3004 RMK A01 T01270113  RH  091%=      5-min Rain = 0
KHA2 260231Z 31006KT 13/11 A3004 RMK A01 T01270113  RH  091%=      5-min Rain = 0
KHA2 260232Z 31005KT 13/11 A3004 RMK A01 T01260113  RH  092%=      5-min Rain = 0
KHA2 260233Z 31005KT 13/11 A3004 RMK A01 T01260113  RH  092%=      5-min Rain = 0
KHA2 260234Z 31005KT 13/11 A3004 RMK A01 T01260113  RH  092%=      5-min Rain = 0
KHA2 260235Z 31005KT 13/11 A3004 RMK A01 T01270113  RH  092%=      5-min Rain = 0
KHA2 260236Z 31005KT 13/11 A3004 RMK A01 T01270113  RH  091%=      5-min Rain = 0
KHA2 260237Z 31005KT 13/11 A3004 RMK A01 T01260113  RH  091%=      5-min Rain = 0
KHA2 260238Z 31005KT 13/11 A3004 RMK A01 T01260113  RH  091%=      5-min Rain = 0
KHA2 260239Z 31005KT 13/11 A3004 RMK A01 T01260113  RH  092%=      5-min Rain = 0
KHA2 260240Z 32006KT 13/11 A3004 RMK A01 T01260113  RH  092%=      5-min Rain = 0
KHA2 260241Z 31005KT 13/11 A3004 RMK A01 T01260112  RH  091%=      5-min Rain = 0
KHA2 260242Z 31006KT 13/11 A3004 RMK A01 T01260112  RH  091%=      5-min Rain = 0
KHA2 260243Z 31005KT 13/11 A3004 RMK A01 T01260112  RH  091%=      5-min Rain = 0
KHA2 260244Z 31005KT 13/11 A3004 RMK A01 T01260112  RH  091%=      5-min Rain = 0
KHA2 260245Z 31005KT 13/11 A3004 RMK A01 T01260112  RH  091%=      5-min Rain = 0
KHA2 260246Z 31005KT 13/11 A3004 RMK A01 T01260112  RH  091%=      5-min Rain = 0
KHA2 260247Z 30005KT 13/11 A3004 RMK A01 T01260112  RH  091%=      5-min Rain = 0
KHA2 260248Z 30005KT 13/11 A3004 RMK A01 T01260112  RH  091%=      5-min Rain = 0
KHA2 260249Z 30005KT 13/11 A3004 RMK A01 T01260112  RH  091%=      5-min Rain = 0
KHA2 260250Z 30005KT 13/11 A3004 RMK A01 T01260112  RH  091%=      5-min Rain = 0
KHA2 260251Z 30006KT 13/11 A3005 RMK A01 T01260112  RH  091%=      5-min Rain = 0
KHA2 260252Z 30006KT 13/11 A3005 RMK A01 T01270112  RH  091%=      5-min Rain = 0
KHA2 260253Z 30007KT 13/11 A3005 RMK A01 T01270112  RH  090%=      5-min Rain = 0
KHA2 260254Z 31007KT 13/11 A3005 RMK A01 T01280112  RH  090%=      5-min Rain = 0
KHA2 260255Z 31006KT 13/11 A3005 RMK A01 T01280111  RH  089%=      5-min Rain = 0
KHA2 260256Z 31006KT 13/11 A3005 RMK A01 T01280111  RH  089%=      5-min Rain = 0
KHA2 260257Z 32005KT 13/11 A3005 RMK A01 T01280111  RH  089%=      5-min Rain = 0
KHA2 260258Z 32005KT 13/11 A3005 RMK A01 T01280111  RH  089%=      5-min Rain = 0
KHA2 260259Z 32005KT 13/11 A3005 RMK A01 T01270110  RH  090%=      5-min Rain = 0
KHA2 260300Z 32005KT 13/11 A3005 RMK A01 T01270110  RH  090%=      5-min Rain = 0
KHA2 260301Z 31005KT 13/11 A3005 RMK A01 T01260110  RH  090%=      5-min Rain = 0
KHA2 260302Z 32005KT 13/11 A3005 RMK A01 T01260110  RH  090%=      5-min Rain = 0
KHA2 260303Z 31005KT 13/11 A3005 RMK A01 T01260110  RH  090%=      5-min Rain = 0
KHA2 260304Z 31005KT 13/11 A3005 RMK A01 T01250109  RH  090%=      5-min Rain = 0
KHA2 260305Z 31005KT 13/11 A3005 RMK A01 T01260109  RH  090%=      5-min Rain = 0
KHA2 260306Z 32005KT 13/11 A3005 RMK A01 T01250109  RH  090%=      5-min Rain = 0
KHA2 260307Z 31005KT 13/11 A3005 RMK A01 T01250109  RH  090%=      5-min Rain = 0
KHA2 260308Z 31005KT 13/11 A3005 RMK A01 T01250109  RH  090%=      5-min Rain = 0
KHA2 260309Z 31005KT 12/11 A3005 RMK A01 T01240109  RH  090%=      5-min Rain = 0
KHA2 260310Z 31005KT 12/11 A3005 RMK A01 T01240109  RH  090%=      5-min Rain = 0
KHA2 260311Z 31005KT 12/11 A3005 RMK A01 T01240109  RH  090%=      5-min Rain = 0
KHA2 260312Z 31005KT 12/11 A3005 RMK A01 T01240109  RH  090%=      5-min Rain = 0
KHA2 260313Z 31005KT 12/11 A3005 RMK A01 T01240108  RH  090%=      5-min Rain = 0
KHA2 260314Z 31005KT 12/11 A3005 RMK A01 T01240108  RH  090%=      5-min Rain = 0
KHA2 260315Z 31005KT 12/11 A3005 RMK A01 T01240107  RH  090%=      5-min Rain = 0
KHA2 260316Z 30006KT 12/11 A3005 RMK A01 T01240107  RH  089%=      5-min Rain = 0
KHA2 260317Z 30006KT 12/11 A3005 RMK A01 T01240107  RH  089%=      5-min Rain = 0
KHA2 260318Z 30005KT 12/11 A3006 RMK A01 T01240108  RH  089%=      5-min Rain = 0
KHA2 260319Z 30006KT 12/11 A3006 RMK A01 T01240108  RH  090%=      5-min Rain = 0
KHA2 260320Z 30006KT 12/11 A3006 RMK A01 T01240109  RH  090%=      5-min Rain = 0
KHA2 260321Z 30006KT 12/11 A3006 RMK A01 T01240109  RH  091%=      5-min Rain = 0
KHA2 260322Z 30005KT 12/11 A3006 RMK A01 T01240109  RH  091%=      5-min Rain = 0
KHA2 260323Z 31005KT 12/11 A3006 RMK A01 T01240109  RH  090%=      5-min Rain = 0
KHA2 260324Z 31005KT 12/11 A3006 RMK A01 T01240108  RH  090%=      5-min Rain = 0
KHA2 260325Z 30005KT 12/11 A3006 RMK A01 T01240108  RH  090%=      5-min Rain = 0
KHA2 260326Z 30005KT 12/11 A3006 RMK A01 T01240108  RH  090%=      5-min Rain = 0
KHA2 260327Z 30006KT 12/11 A3006 RMK A01 T01240108  RH  090%=      5-min Rain = 0
KHA2 260328Z 31006KT 12/11 A3006 RMK A01 T01240108  RH  090%=      5-min Rain = 0
KHA2 260329Z 31006KT 12/11 A3006 RMK A01 T01240108  RH  090%=      5-min Rain = 0
KHA2 260330Z 31006KT 12/11 A3006 RMK A01 T01240108  RH  090%=      5-min Rain = 0
KHA2 260331Z 31006KT 12/11 A3006 RMK A01 T01230107  RH  090%=      5-min Rain = 0
KHA2 260332Z 31006KT 12/11 A3006 RMK A01 T01230108  RH  090%=      5-min Rain = 0
KHA2 260333Z 31006KT 12/11 A3006 RMK A01 T01230107  RH  090%=      5-min Rain = 0
KHA2 260334Z 30006KT 12/11 A3006 RMK A01 T01230107  RH  090%=      5-min Rain = 0
KHA2 260335Z 30006KT 12/11 A3006 RMK A01 T01230107  RH  090%=      5-min Rain = 0
KHA2 260336Z 30007KT 12/11 A3006 RMK A01 T01220107  RH  090%=      5-min Rain = 0
KHA2 260337Z 30006KT 12/11 A3006 RMK A01 T01220107  RH  090%=      5-min Rain = 0
KHA2 260338Z 30006KT 12/11 A3006 RMK A01 T01220106  RH  090%=      5-min Rain = 0
KHA2 260339Z 30007KT 12/11 A3007 RMK A01 T01220107  RH  090%=      5-min Rain = 0
KHA2 260340Z 30007KT 12/11 A3007 RMK A01 T01230106  RH  090%=      5-min Rain = 0
KHA2 260341Z 30007KT 12/11 A3007 RMK A01 T01230106  RH  089%=      5-min Rain = 0
KHA2 260342Z 30006KT 12/11 A3007 RMK A01 T01230106  RH  089%=      5-min Rain = 0
KHA2 260343Z 30006KT 12/11 A3007 RMK A01 T01230106  RH  090%=      5-min Rain = 0
KHA2 260344Z 30006KT 12/11 A3007 RMK A01 T01230106  RH  090%=      5-min Rain = 0
KHA2 260345Z 30006KT 12/11 A3007 RMK A01 T01230106  RH  089%=      5-min Rain = 0
KHA2 260346Z 31006KT 12/11 A3007 RMK A01 T01230106  RH  089%=      5-min Rain = 0
KHA2 260347Z 31006KT 12/11 A3007 RMK A01 T01220105  RH  089%=      5-min Rain = 0
KHA2 260348Z 31006KT 12/11 A3007 RMK A01 T01220105  RH  090%=      5-min Rain = 0
KHA2 260349Z 31006KT 12/11 A3007 RMK A01 T01210105  RH  090%=      5-min Rain = 0
KHA2 260350Z 31005KT 12/11 A3007 RMK A01 T01220106  RH  090%=      5-min Rain = 0
KHA2 260351Z 31005KT 12/11 A3007 RMK A01 T01210105  RH  090%=      5-min Rain = 0
KHA2 260352Z 31005KT 12/11 A3007 RMK A01 T01210105  RH  090%=      5-min Rain = 0
KHA2 260353Z 31005KT 12/11 A3007 RMK A01 T01210105  RH  090%=      5-min Rain = 0
KHA2 260354Z 31005KT 12/11 A3007 RMK A01 T01210105  RH  090%=      5-min Rain = 0
KHA2 260355Z 31005KT 12/11 A3007 RMK A01 T01210105  RH  090%=      5-min Rain = 0
KHA2 260356Z 31006KT 12/11 A3007 RMK A01 T01210105  RH  090%=      5-min Rain = 0
KHA2 260357Z 31005KT 12/11 A3007 RMK A01 T01200105  RH  090%=      5-min Rain = 0
KHA2 260358Z 31005KT 12/11 A3007 RMK A01 T01210105  RH  090%=      5-min Rain = 0
KHA2 260359Z 31005KT 12/11 A3007 RMK A01 T01210105  RH  090%=      5-min Rain = 0
KHA2 260400Z 31004KT 12/11 A3007 RMK A01 T01210105  RH  090%=      5-min Rain = 0
KHA2 260401Z 32004KT 12/11 A3007 RMK A01 T01210105  RH  090%=      5-min Rain = 0
KHA2 260402Z 32003KT 12/11 A3007 RMK A01 T01200105  RH  090%=      5-min Rain = 0
KHA2 260403Z 32004KT 12/11 A3007 RMK A01 T01200105  RH  090%=      5-min Rain = 0
KHA2 260404Z 32005KT 12/10 A3007 RMK A01 T01190104  RH  090%=      5-min Rain = 0
KHA2 260405Z 32005KT 12/10 A3008 RMK A01 T01190104  RH  090%=      5-min Rain = 0
KHA2 260406Z 31005KT 12/10 A3008 RMK A01 T01200104  RH  090%=      5-min Rain = 0
KHA2 260407Z 32005KT 12/10 A3008 RMK A01 T01200104  RH  090%=      5-min Rain = 0
KHA2 260408Z 31005KT 12/10 A3008 RMK A01 T01200104  RH  090%=      5-min Rain = 0
KHA2 260409Z 31005KT 12/10 A3008 RMK A01 T01200104  RH  090%=      5-min Rain = 0
KHA2 260410Z 31005KT 12/10 A3008 RMK A01 T01200104  RH  090%=      5-min Rain = 0
KHA2 260411Z 31005KT 12/11 A3008 RMK A01 T01200105  RH  090%=      5-min Rain = 0
KHA2 260412Z 31005KT 12/11 A3008 RMK A01 T01200105  RH  090%=      5-min Rain = 0
KHA2 260413Z 31004KT 12/10 A3008 RMK A01 T01200104  RH  090%=      5-min Rain = 0
KHA2 260414Z 31004KT 12/11 A3008 RMK A01 T01200105  RH  091%=      5-min Rain = 0
KHA2 260415Z 31004KT 12/11 A3008 RMK A01 T01190105  RH  091%=      5-min Rain = 0
KHA2 260416Z 31005KT 12/11 A3008 RMK A01 T01190105  RH  091%=      5-min Rain = 0
KHA2 260417Z 31005KT 12/11 A3008 RMK A01 T01190105  RH  091%=      5-min Rain = 0
KHA2 260418Z 30005KT 12/11 A3008 RMK A01 T01200106  RH  091%=      5-min Rain = 0
KHA2 260419Z 30005KT 12/11 A3008 RMK A01 T01190105  RH  091%=      5-min Rain = 0
KHA2 260420Z 30005KT 12/11 A3008 RMK A01 T01190105  RH  091%=      5-min Rain = 0
KHA2 260421Z 31005KT 12/11 A3008 RMK A01 T01190105  RH  091%=      5-min Rain = 0
KHA2 260422Z 31005KT 12/11 A3008 RMK A01 T01190105  RH  091%=      5-min Rain = 0
KHA2 260423Z 31005KT 12/11 A3008 RMK A01 T01190105  RH  091%=      5-min Rain = 0
KHA2 260424Z 31005KT 12/10 A3008 RMK A01 T01190104  RH  091%=      5-min Rain = 0
KHA2 260425Z 31006KT 12/10 A3008 RMK A01 T01190104  RH  091%=      5-min Rain = 0
KHA2 260426Z 31006KT 12/10 A3008 RMK A01 T01190104  RH  091%=      5-min Rain = 0
KHA2 260427Z 31006KT 12/10 A3008 RMK A01 T01190104  RH  091%=      5-min Rain = 0
KHA2 260428Z 31006KT 12/10 A3008 RMK A01 T01190104  RH  091%=      5-min Rain = 0
KHA2 260429Z 31006KT 12/10 A3008 RMK A01 T01180104  RH  091%=      5-min Rain = 0
KHA2 260430Z 31006KT 12/10 A3008 RMK A01 T01180104  RH  091%=      5-min Rain = 0
KHA2 260431Z 31006KT 12/10 A3008 RMK A01 T01180104  RH  091%=      5-min Rain = 0
KHA2 260432Z 31006KT 12/10 A3008 RMK A01 T01180104  RH  091%=      5-min Rain = 0
KHA2 260433Z 31006KT 12/10 A3008 RMK A01 T01180104  RH  091%=      5-min Rain = 0
KHA2 260434Z 31006KT 12/10 A3008 RMK A01 T01180103  RH  091%=      5-min Rain = 0
KHA2 260435Z 31006KT 12/10 A3008 RMK A01 T01180103  RH  091%=      5-min Rain = 0
KHA2 260436Z 31006KT 12/10 A3008 RMK A01 T01180103  RH  091%=      5-min Rain = 0
KHA2 260437Z 31006KT 12/10 A3008 RMK A01 T01180103  RH  091%=      5-min Rain = 0
KHA2 260438Z 31007KT 12/10 A3008 RMK A01 T01170102  RH  091%=      5-min Rain = 0
KHA2 260439Z 30006KT 12/10 A3008 RMK A01 T01170102  RH  091%=      5-min Rain = 0
KHA2 260440Z 30007KT 12/10 A3008 RMK A01 T01170103  RH  091%=      5-min Rain = 0
KHA2 260441Z 30007KT 12/10 A3008 RMK A01 T01170103  RH  091%=      5-min Rain = 0
KHA2 260442Z 29007KT 12/10 A3008 RMK A01 T01170103  RH  091%=      5-min Rain = 0
KHA2 260443Z 29007KT 12/10 A3008 RMK A01 T01170103  RH  091%=      5-min Rain = 0
KHA2 260444Z 30007KT 12/10 A3008 RMK A01 T01180104  RH  091%=      5-min Rain = 0
KHA2 260445Z 29007KT 12/10 A3008 RMK A01 T01190103  RH  090%=      5-min Rain = 0
KHA2 260446Z 29007KT 12/10 A3008 RMK A01 T01190103  RH  090%=      5-min Rain = 0
KHA2 260447Z 29007KT 12/10 A3008 RMK A01 T01200102  RH  089%=      5-min Rain = 0
KHA2 260448Z 30007KT 12/10 A3008 RMK A01 T01200102  RH  089%=      5-min Rain = 0
KHA2 260449Z 29007KT 12/10 A3008 RMK A01 T01200102  RH  089%=      5-min Rain = 0
KHA2 260450Z 29007KT 12/10 A3008 RMK A01 T01210102  RH  088%=      5-min Rain = 0
KHA2 260451Z 29007KT 12/10 A3008 RMK A01 T01210102  RH  088%=      5-min Rain = 0
KHA2 260452Z 30007KT 12/10 A3008 RMK A01 T01210102  RH  088%=      5-min Rain = 0
KHA2 260453Z 29007KT 12/10 A3008 RMK A01 T01200102  RH  088%=      5-min Rain = 0
KHA2 260454Z 29007KT 12/10 A3008 RMK A01 T01200101  RH  088%=      5-min Rain = 0
KHA2 260455Z 29008KT 12/10 A3008 RMK A01 T01210101  RH  088%=      5-min Rain = 0
KHA2 260456Z 29008KT 12/10 A3008 RMK A01 T01210101  RH  088%=      5-min Rain = 0
KHA2 260457Z 29007KT 12/10 A3008 RMK A01 T01210101  RH  088%=      5-min Rain = 0
KHA2 260458Z 29008KT 12/10 A3008 RMK A01 T01220101  RH  087%=      5-min Rain = 0
KHA2 260459Z 29008KT 12/10 A3007 RMK A01 T01220101  RH  087%=      5-min Rain = 0

Page generated in 0.1286 seconds.